UAL18 LIMC-KEWR
Flight info
| Callsign | UAL18 |
|---|---|
| Flight time | 8h 0m |
| Altitude | 34000 |
| Route | AOSTA5W AOSTA DCT ORSUD DCT MOLUS DCT UNKIR DCT DJL DCT OKRIX DCT AMODO DCT COHPA UM729 RESMI UN491 LGL UN502 JSY DCT LIZAD DCT ARKIL DCT DOLIP DCT MALOT/M085F340 DCT 54N020W 55N030W 55N040W 53N050W DCT RIKAL/N0489F340 N576B ANATI DCT IMORI DCT HANAA FLOSI4 |
| Aircraft | B772/H-SDE2E3FGHIJ5LORVWXY/LB1D1 |
Departure
| Time | 2026-04-25 22:40 |
|---|---|
| Airport | Milan Malpensa International Airport (LIMC) |
Arrival
| Time | 2026-04-26 06:40 |
|---|---|
| Airport | Newark Liberty International Airport (KEWR) |
| Time | Latitude | Longitude | Altitude | Speed | Heading |
|---|---|---|---|---|---|
| 2026-04-25 21:47 | 45.63164 | 8.71354 | 750 ft | 0 kts | 168° |
| 2026-04-25 22:12 | 45.63163 | 8.71354 | 750 ft | 0 kts | 168° |
| 2026-04-25 22:13 | 45.63163 | 8.71355 | 750 ft | 0 kts | 168° |
| 2026-04-25 22:17 | 45.63167 | 8.71353 | 750 ft | 1 kts | 168° |
| 2026-04-25 22:17 | 45.63175 | 8.71351 | 750 ft | 1 kts | 168° |
| 2026-04-25 22:18 | 45.63185 | 8.71348 | 750 ft | 1 kts | 168° |
| 2026-04-25 22:18 | 45.63195 | 8.71345 | 750 ft | 1 kts | 168° |
| 2026-04-25 22:18 | 45.63208 | 8.71341 | 751 ft | 2 kts | 169° |
| 2026-04-25 22:18 | 45.63225 | 8.71332 | 751 ft | 1 kts | 131° |
| 2026-04-25 22:19 | 45.63229 | 8.71315 | 751 ft | 3 kts | 88° |
| 2026-04-25 22:19 | 45.63227 | 8.71285 | 751 ft | 0 kts | 85° |
| 2026-04-25 22:19 | 45.63228 | 8.71294 | 751 ft | 2 kts | 85° |
| 2026-04-25 22:19 | 45.63231 | 8.71330 | 751 ft | 3 kts | 80° |
| 2026-04-25 22:20 | 45.63233 | 8.71347 | 751 ft | 0 kts | 78° |
| 2026-04-25 22:22 | 45.63233 | 8.71350 | 751 ft | 0 kts | 78° |
| 2026-04-25 22:22 | 45.63235 | 8.71361 | 751 ft | 1 kts | 78° |
| 2026-04-25 22:23 | 45.63241 | 8.71406 | 751 ft | 8 kts | 78° |
| 2026-04-25 22:23 | 45.63248 | 8.71458 | 751 ft | 0 kts | 80° |
| 2026-04-25 22:23 | 45.63251 | 8.71480 | 751 ft | 8 kts | 80° |
| 2026-04-25 22:23 | 45.63267 | 8.71596 | 753 ft | 16 kts | 79° |
| 2026-04-25 22:24 | 45.63280 | 8.71693 | 755 ft | 0 kts | 78° |
| 2026-04-25 22:24 | 45.63282 | 8.71703 | 755 ft | 1 kts | 78° |
| 2026-04-25 22:24 | 45.63292 | 8.71776 | 755 ft | 13 kts | 80° |
| 2026-04-25 22:24 | 45.63213 | 8.71881 | 754 ft | 22 kts | 169° |
| 2026-04-25 22:25 | 45.63045 | 8.71926 | 750 ft | 25 kts | 169° |
| 2026-04-25 22:25 | 45.62868 | 8.71975 | 747 ft | 26 kts | 169° |
| 2026-04-25 22:25 | 45.62709 | 8.72021 | 743 ft | 22 kts | 169° |
| 2026-04-25 22:25 | 45.62550 | 8.72063 | 742 ft | 22 kts | 170° |
| 2026-04-25 22:26 | 45.62396 | 8.72103 | 741 ft | 22 kts | 169° |
| 2026-04-25 22:26 | 45.62239 | 8.72148 | 738 ft | 24 kts | 169° |
| 2026-04-25 22:26 | 45.62069 | 8.72196 | 734 ft | 25 kts | 169° |
| 2026-04-25 22:26 | 45.61891 | 8.72244 | 728 ft | 27 kts | 169° |
| 2026-04-25 22:27 | 45.61702 | 8.72295 | 722 ft | 26 kts | 170° |
| 2026-04-25 22:27 | 45.61528 | 8.72344 | 718 ft | 25 kts | 168° |
| 2026-04-25 22:27 | 45.61393 | 8.72323 | 713 ft | 18 kts | 247° |
| 2026-04-25 22:27 | 45.61344 | 8.72205 | 714 ft | 13 kts | 191° |
| 2026-04-25 22:28 | 45.61243 | 8.72224 | 709 ft | 18 kts | 169° |
| 2026-04-25 22:28 | 45.61091 | 8.72267 | 704 ft | 24 kts | 169° |
| 2026-04-25 22:28 | 45.60910 | 8.72314 | 699 ft | 26 kts | 170° |
| 2026-04-25 22:28 | 45.60725 | 8.72366 | 697 ft | 26 kts | 167° |
| 2026-04-25 22:29 | 45.60632 | 8.72555 | 698 ft | 24 kts | 97° |
| 2026-04-25 22:29 | 45.60616 | 8.72793 | 699 ft | 23 kts | 96° |
| 2026-04-25 22:29 | 45.60598 | 8.73022 | 697 ft | 23 kts | 97° |
| 2026-04-25 22:30 | 45.60739 | 8.73340 | 693 ft | 22 kts | 21° |
| 2026-04-25 22:30 | 45.60869 | 8.73413 | 691 ft | 14 kts | 12° |
| 2026-04-25 22:30 | 45.60902 | 8.73414 | 691 ft | 0 kts | 355° |
| 2026-04-25 22:31 | 45.60961 | 8.73403 | 691 ft | 14 kts | 350° |
| 2026-04-25 22:31 | 45.61087 | 8.73367 | 693 ft | 20 kts | 348° |
| 2026-04-25 22:31 | 45.61240 | 8.73322 | 696 ft | 23 kts | 349° |
| 2026-04-25 22:31 | 45.61393 | 8.73278 | 700 ft | 20 kts | 349° |
| 2026-04-25 22:32 | 45.61516 | 8.73248 | 703 ft | 14 kts | 351° |
| 2026-04-25 22:32 | 45.61595 | 8.73237 | 705 ft | 9 kts | 23° |
| 2026-04-25 22:32 | 45.61625 | 8.73325 | 703 ft | 11 kts | 78° |
| 2026-04-25 22:32 | 45.61634 | 8.73404 | 703 ft | 0 kts | 84° |
| 2026-04-25 22:37 | 45.61635 | 8.73418 | 703 ft | 3 kts | 94° |
| 2026-04-25 22:37 | 45.61614 | 8.73486 | 703 ft | 9 kts | 119° |
| 2026-04-25 22:37 | 45.61594 | 8.73536 | 703 ft | 5 kts | 116° |
| 2026-04-25 22:37 | 45.61590 | 8.73558 | 702 ft | 0 kts | 103° |
| 2026-04-25 22:38 | 45.61587 | 8.73593 | 702 ft | 9 kts | 94° |
| 2026-04-25 22:38 | 45.61601 | 8.73736 | 704 ft | 14 kts | 47° |
| 2026-04-25 22:39 | 45.61643 | 8.73740 | 705 ft | 0 kts | 346° |
| 2026-04-25 22:39 | 45.61665 | 8.73733 | 705 ft | 18 kts | 347° |
| 2026-04-25 22:39 | 45.62058 | 8.73626 | 714 ft | 94 kts | 348° |
| 2026-04-25 22:39 | 45.62938 | 8.73381 | 729 ft | 159 kts | 349° |
| 2026-04-25 22:40 | 45.64129 | 8.73057 | 1102 ft | 181 kts | 349° |
| 2026-04-25 22:40 | 45.65344 | 8.72809 | 1962 ft | 178 kts | 356° |
| 2026-04-25 22:40 | 45.66584 | 8.72728 | 2349 ft | 185 kts | 358° |
| 2026-04-25 22:40 | 45.67919 | 8.72686 | 2550 ft | 201 kts | 359° |
| 2026-04-25 22:41 | 45.69344 | 8.72652 | 2874 ft | 210 kts | 0° |
| 2026-04-25 22:41 | 45.70807 | 8.72617 | 3374 ft | 209 kts | 360° |
| 2026-04-25 22:41 | 45.72246 | 8.72338 | 3814 ft | 211 kts | 340° |
| 2026-04-25 22:41 | 45.73463 | 8.71215 | 4227 ft | 214 kts | 315° |
| 2026-04-25 22:42 | 45.74242 | 8.69387 | 4632 ft | 219 kts | 289° |
| 2026-04-25 22:42 | 45.74388 | 8.67168 | 4879 ft | 235 kts | 262° |
| 2026-04-25 22:42 | 45.73798 | 8.64986 | 4977 ft | 241 kts | 239° |
| 2026-04-25 22:42 | 45.72841 | 8.62977 | 5009 ft | 242 kts | 236° |
| 2026-04-25 22:43 | 45.71876 | 8.61038 | 5011 ft | 240 kts | 236° |
| 2026-04-25 22:43 | 45.70919 | 8.59061 | 5019 ft | 250 kts | 240° |
| 2026-04-25 22:43 | 45.69982 | 8.56863 | 5016 ft | 263 kts | 240° |
| 2026-04-25 22:43 | 45.69017 | 8.54612 | 5014 ft | 267 kts | 239° |
| 2026-04-25 22:44 | 45.68025 | 8.52336 | 5014 ft | 272 kts | 239° |
| 2026-04-25 22:44 | 45.67006 | 8.50031 | 5304 ft | 279 kts | 239° |
| 2026-04-25 22:44 | 45.65974 | 8.47715 | 6059 ft | 276 kts | 239° |
| 2026-04-25 22:44 | 45.64942 | 8.45398 | 6662 ft | 279 kts | 239° |
| 2026-04-25 22:45 | 45.63903 | 8.43066 | 7227 ft | 282 kts | 239° |
| 2026-04-25 22:45 | 45.62825 | 8.40714 | 7845 ft | 284 kts | 235° |
| 2026-04-25 22:45 | 45.61604 | 8.38535 | 8436 ft | 286 kts | 231° |
| 2026-04-25 22:45 | 45.60309 | 8.36346 | 8929 ft | 289 kts | 231° |
| 2026-04-25 22:46 | 45.59028 | 8.34124 | 9459 ft | 293 kts | 237° |
| 2026-04-25 22:46 | 45.58244 | 8.31489 | 9989 ft | 293 kts | 262° |
| 2026-04-25 22:46 | 45.58280 | 8.28626 | 10399 ft | 293 kts | 283° |
| 2026-04-25 22:46 | 45.58818 | 8.25844 | 10881 ft | 292 kts | 289° |
| 2026-04-25 22:47 | 45.59451 | 8.23088 | 11429 ft | 294 kts | 290° |
| 2026-04-25 22:47 | 45.60099 | 8.20320 | 11898 ft | 296 kts | 290° |
| 2026-04-25 22:47 | 45.60746 | 8.17547 | 12364 ft | 299 kts | 289° |
| 2026-04-25 22:47 | 45.61408 | 8.14698 | 12881 ft | 301 kts | 290° |
| 2026-04-25 22:48 | 45.62060 | 8.11882 | 13388 ft | 303 kts | 290° |
| 2026-04-25 22:48 | 45.62712 | 8.09065 | 14040 ft | 301 kts | 290° |
| 2026-04-25 22:48 | 45.63353 | 8.06285 | 14945 ft | 294 kts | 290° |
| 2026-04-25 22:48 | 45.63985 | 8.03546 | 15786 ft | 289 kts | 291° |
| 2026-04-25 22:49 | 45.64608 | 8.00845 | 16492 ft | 290 kts | 291° |
| 2026-04-25 22:49 | 45.65239 | 7.98108 | 17122 ft | 293 kts | 291° |
| 2026-04-25 22:49 | 45.65874 | 7.95348 | 17744 ft | 296 kts | 291° |
| 2026-04-25 22:49 | 45.66521 | 7.92532 | 18405 ft | 298 kts | 291° |
| 2026-04-25 22:50 | 45.67160 | 7.89743 | 19059 ft | 299 kts | 291° |
| 2026-04-25 22:50 | 45.67807 | 7.86922 | 19642 ft | 302 kts | 291° |
| 2026-04-25 22:50 | 45.68462 | 7.84055 | 20241 ft | 305 kts | 291° |
| 2026-04-25 22:50 | 45.69120 | 7.81175 | 20803 ft | 308 kts | 291° |
| 2026-04-25 22:51 | 45.69780 | 7.78280 | 21365 ft | 310 kts | 291° |
| 2026-04-25 22:51 | 45.70461 | 7.75295 | 21696 ft | 321 kts | 291° |
| 2026-04-25 22:51 | 45.71168 | 7.72195 | 21826 ft | 338 kts | 291° |
| 2026-04-25 22:51 | 45.71907 | 7.68945 | 21970 ft | 353 kts | 291° |
| 2026-04-25 22:52 | 45.72680 | 7.65535 | 22127 ft | 368 kts | 291° |
| 2026-04-25 22:52 | 45.73484 | 7.61989 | 22225 ft | 384 kts | 290° |
| 2026-04-25 22:52 | 45.74312 | 7.58326 | 22312 ft | 400 kts | 290° |
| 2026-04-25 22:52 | 45.74898 | 7.55727 | 22351 ft | 411 kts | 290° |
| 2026-04-25 22:53 | 45.76093 | 7.50425 | 22489 ft | 430 kts | 290° |
| 2026-04-25 22:53 | 45.77005 | 7.46362 | 22936 ft | 435 kts | 290° |
| 2026-04-25 22:53 | 45.77938 | 7.42230 | 23567 ft | 435 kts | 291° |
| 2026-04-25 22:53 | 45.79140 | 7.38299 | 24171 ft | 435 kts | 300° |
| 2026-04-25 22:54 | 45.80791 | 7.34657 | 24584 ft | 438 kts | 309° |
| 2026-04-25 22:54 | 45.82856 | 7.31441 | 24993 ft | 442 kts | 318° |
| 2026-04-25 22:54 | 45.85262 | 7.28733 | 25494 ft | 443 kts | 324° |
| 2026-04-25 22:54 | 45.87772 | 7.26205 | 25906 ft | 447 kts | 325° |
| 2026-04-25 22:55 | 45.90335 | 7.23630 | 26336 ft | 450 kts | 324° |
| 2026-04-25 22:55 | 45.92902 | 7.21038 | 26772 ft | 452 kts | 324° |
| 2026-04-25 22:55 | 45.95439 | 7.18468 | 27231 ft | 453 kts | 324° |
| 2026-04-25 22:55 | 45.98024 | 7.15840 | 27624 ft | 456 kts | 324° |
| 2026-04-25 22:56 | 46.00599 | 7.13213 | 27904 ft | 460 kts | 324° |
| 2026-04-25 22:56 | 46.03232 | 7.10521 | 28234 ft | 463 kts | 324° |
| 2026-04-25 22:56 | 46.05835 | 7.07856 | 28603 ft | 465 kts | 324° |
| 2026-04-25 22:56 | 46.08486 | 7.05136 | 28924 ft | 467 kts | 324° |
| 2026-04-25 22:57 | 46.11128 | 7.02422 | 29183 ft | 470 kts | 323° |
| 2026-04-25 22:57 | 46.13816 | 6.99655 | 29429 ft | 474 kts | 323° |
| 2026-04-25 22:57 | 46.16485 | 6.96906 | 29803 ft | 474 kts | 323° |
| 2026-04-25 22:57 | 46.19194 | 6.94112 | 30287 ft | 471 kts | 323° |
| 2026-04-25 22:58 | 46.21835 | 6.91383 | 30798 ft | 468 kts | 323° |
| 2026-04-25 22:58 | 46.24501 | 6.88625 | 31291 ft | 465 kts | 323° |
| 2026-04-25 22:58 | 46.27117 | 6.85916 | 31666 ft | 464 kts | 323° |
| 2026-04-25 22:58 | 46.29757 | 6.83178 | 32008 ft | 464 kts | 323° |
| 2026-04-25 22:59 | 46.32417 | 6.80417 | 32371 ft | 463 kts | 323° |
| 2026-04-25 22:59 | 46.35070 | 6.77657 | 32763 ft | 462 kts | 323° |
| 2026-04-25 22:59 | 46.37516 | 6.74673 | 33133 ft | 459 kts | 315° |
| 2026-04-25 22:59 | 46.39638 | 6.71239 | 33484 ft | 458 kts | 309° |
| 2026-04-25 23:00 | 46.41654 | 6.67637 | 33818 ft | 457 kts | 309° |
| 2026-04-25 23:00 | 46.43687 | 6.63981 | 34140 ft | 457 kts | 309° |
| 2026-04-25 23:00 | 46.47674 | 6.56800 | 34158 ft | 456 kts | 309° |
| 2026-04-25 23:01 | 46.51637 | 6.49643 | 34156 ft | 456 kts | 308° |
| 2026-04-25 23:01 | 46.55591 | 6.42483 | 34164 ft | 457 kts | 308° |
| 2026-04-25 23:02 | 46.59539 | 6.35317 | 34171 ft | 455 kts | 308° |
| 2026-04-25 23:02 | 46.63493 | 6.28119 | 34172 ft | 455 kts | 308° |
| 2026-04-25 23:03 | 46.67419 | 6.20955 | 34185 ft | 455 kts | 307° |
| 2026-04-25 23:03 | 46.71352 | 6.13760 | 34179 ft | 454 kts | 307° |
| 2026-04-25 23:04 | 46.74647 | 6.07716 | 34172 ft | 460 kts | 307° |
| 2026-04-25 23:04 | 46.79328 | 5.99105 | 34163 ft | 469 kts | 307° |
| 2026-04-25 23:05 | 46.83393 | 5.91608 | 34155 ft | 471 kts | 307° |
| 2026-04-25 23:05 | 46.87437 | 5.84130 | 34154 ft | 472 kts | 307° |
| 2026-04-25 23:06 | 46.91477 | 5.76641 | 34151 ft | 471 kts | 307° |
| 2026-04-25 23:06 | 46.95524 | 5.69117 | 34155 ft | 471 kts | 307° |
| 2026-04-25 23:07 | 46.99567 | 5.61577 | 34154 ft | 472 kts | 307° |
| 2026-04-25 23:07 | 47.03588 | 5.54061 | 34161 ft | 471 kts | 307° |
| 2026-04-25 23:08 | 47.07621 | 5.46502 | 34163 ft | 472 kts | 307° |
| 2026-04-25 23:08 | 47.11655 | 5.38917 | 34156 ft | 471 kts | 307° |
| 2026-04-25 23:09 | 47.15670 | 5.31349 | 34156 ft | 473 kts | 306° |
| 2026-04-25 23:09 | 47.19697 | 5.23738 | 34161 ft | 473 kts | 306° |
| 2026-04-25 23:10 | 47.23729 | 5.16097 | 34167 ft | 473 kts | 306° |
| 2026-04-25 23:10 | 47.27734 | 5.08472 | 34166 ft | 472 kts | 304° |
| 2026-04-25 23:11 | 47.31447 | 5.00524 | 34180 ft | 471 kts | 302° |
| 2026-04-25 23:11 | 47.35119 | 4.92554 | 34154 ft | 470 kts | 303° |
| 2026-04-25 23:12 | 47.36951 | 4.88584 | 34276 ft | 471 kts | 303° |
| 2026-04-25 23:12 | 47.38758 | 4.84669 | 34851 ft | 462 kts | 303° |
| 2026-04-25 23:12 | 47.40558 | 4.80769 | 35501 ft | 449 kts | 303° |
| 2026-04-25 23:12 | 47.42302 | 4.76987 | 35558 ft | 452 kts | 303° |
| 2026-04-25 23:13 | 47.45855 | 4.69266 | 35532 ft | 458 kts | 303° |
| 2026-04-25 23:13 | 47.49448 | 4.61447 | 35585 ft | 464 kts | 303° |
| 2026-04-25 23:14 | 47.53073 | 4.53536 | 35639 ft | 469 kts | 303° |
| 2026-04-25 23:14 | 47.54903 | 4.49535 | 35852 ft | 468 kts | 303° |
| 2026-04-25 23:14 | 47.56708 | 4.45586 | 36134 ft | 464 kts | 303° |
| 2026-04-25 23:15 | 47.60239 | 4.37841 | 36166 ft | 452 kts | 303° |
| 2026-04-25 23:15 | 47.63765 | 4.30084 | 36171 ft | 454 kts | 302° |
| 2026-04-25 23:16 | 47.67255 | 4.22384 | 36172 ft | 454 kts | 302° |
| 2026-04-25 23:16 | 47.70768 | 4.14611 | 36170 ft | 453 kts | 302° |
| 2026-04-25 23:17 | 47.74250 | 4.06887 | 36171 ft | 453 kts | 302° |
| 2026-04-25 23:17 | 47.77750 | 3.99098 | 36172 ft | 454 kts | 302° |
| 2026-04-25 23:18 | 47.81236 | 3.91320 | 36182 ft | 455 kts | 302° |
| 2026-04-25 23:18 | 47.84734 | 3.83494 | 36186 ft | 455 kts | 302° |
| 2026-04-25 23:19 | 47.88200 | 3.75717 | 36187 ft | 453 kts | 302° |
| 2026-04-25 23:19 | 47.91689 | 3.67864 | 36187 ft | 454 kts | 302° |
| 2026-04-25 23:20 | 47.95145 | 3.60075 | 36185 ft | 453 kts | 303° |
| 2026-04-25 23:20 | 47.99366 | 3.53092 | 36188 ft | 457 kts | 317° |
| 2026-04-25 23:21 | 48.04166 | 3.46975 | 36193 ft | 456 kts | 318° |
| 2026-04-25 23:21 | 48.08988 | 3.40813 | 36190 ft | 456 kts | 318° |
| 2026-04-25 23:22 | 48.13771 | 3.34666 | 36188 ft | 456 kts | 317° |
| 2026-04-25 23:23 | 48.20969 | 3.25366 | 36200 ft | 454 kts | 317° |
| 2026-04-25 23:23 | 48.25735 | 3.19184 | 36198 ft | 456 kts | 317° |
| 2026-04-25 23:24 | 48.30501 | 3.12984 | 36190 ft | 454 kts | 317° |
| 2026-04-25 23:24 | 48.35255 | 3.06782 | 36197 ft | 453 kts | 317° |
| 2026-04-25 23:25 | 48.39709 | 3.00179 | 36194 ft | 452 kts | 307° |
| 2026-04-25 23:25 | 48.42870 | 2.92124 | 36190 ft | 450 kts | 292° |
| 2026-04-25 23:26 | 48.44775 | 2.83184 | 36206 ft | 451 kts | 286° |
| 2026-04-25 23:26 | 48.46514 | 2.74157 | 36207 ft | 450 kts | 286° |
| 2026-04-25 23:27 | 48.48249 | 2.65072 | 36215 ft | 451 kts | 286° |
| 2026-04-25 23:27 | 48.49963 | 2.56041 | 36210 ft | 451 kts | 287° |
| 2026-04-25 23:28 | 48.51662 | 2.47034 | 36212 ft | 450 kts | 287° |
| 2026-04-25 23:28 | 48.53367 | 2.37952 | 36213 ft | 450 kts | 287° |
| 2026-04-25 23:29 | 48.55057 | 2.28905 | 36218 ft | 450 kts | 286° |
| 2026-04-25 23:29 | 48.56746 | 2.19814 | 36213 ft | 451 kts | 286° |
| 2026-04-25 23:30 | 48.58145 | 2.10632 | 36215 ft | 452 kts | 282° |
| 2026-04-25 23:30 | 48.59409 | 2.01380 | 36213 ft | 451 kts | 282° |
| 2026-04-25 23:31 | 48.60676 | 1.92164 | 36214 ft | 452 kts | 283° |
| 2026-04-25 23:31 | 48.61951 | 1.82901 | 36218 ft | 451 kts | 283° |
| 2026-04-25 23:32 | 48.63222 | 1.73646 | 36214 ft | 452 kts | 283° |
| 2026-04-25 23:32 | 48.64488 | 1.64383 | 36209 ft | 452 kts | 283° |
| 2026-04-25 23:33 | 48.65739 | 1.55140 | 36201 ft | 451 kts | 283° |
| 2026-04-25 23:33 | 48.66982 | 1.45890 | 36207 ft | 451 kts | 283° |
| 2026-04-25 23:34 | 48.68222 | 1.36603 | 36205 ft | 450 kts | 283° |
| 2026-04-25 23:34 | 48.69455 | 1.27323 | 36201 ft | 452 kts | 283° |
| 2026-04-25 23:35 | 48.70678 | 1.18059 | 36202 ft | 450 kts | 282° |
| 2026-04-25 23:35 | 48.71893 | 1.08787 | 36198 ft | 451 kts | 283° |
| 2026-04-25 23:36 | 48.73101 | 0.99514 | 36204 ft | 450 kts | 283° |
| 2026-04-25 23:36 | 48.74302 | 0.90236 | 36201 ft | 451 kts | 283° |
| 2026-04-25 23:37 | 48.75491 | 0.81016 | 36197 ft | 449 kts | 283° |
| 2026-04-25 23:37 | 48.76685 | 0.71721 | 36194 ft | 449 kts | 283° |
| 2026-04-25 23:38 | 48.77866 | 0.62463 | 36196 ft | 450 kts | 283° |
| 2026-04-25 23:38 | 48.79037 | 0.53213 | 36203 ft | 447 kts | 283° |
| 2026-04-25 23:39 | 48.80573 | 0.44150 | 36203 ft | 446 kts | 288° |
| 2026-04-25 23:39 | 48.82256 | 0.35116 | 36206 ft | 446 kts | 288° |
| 2026-04-25 23:40 | 48.83906 | 0.26086 | 36204 ft | 445 kts | 287° |
| 2026-04-25 23:40 | 48.85537 | 0.17053 | 36203 ft | 445 kts | 287° |
| 2026-04-25 23:41 | 48.87152 | 0.08023 | 36204 ft | 445 kts | 287° |
| 2026-04-25 23:41 | 48.88749 | -0.00968 | 36192 ft | 444 kts | 287° |
| 2026-04-25 23:42 | 48.90342 | -0.09997 | 36196 ft | 442 kts | 287° |
| 2026-04-25 23:42 | 48.91918 | -0.18973 | 36189 ft | 441 kts | 287° |
| 2026-04-25 23:43 | 48.93491 | -0.28015 | 36180 ft | 443 kts | 287° |
| 2026-04-25 23:43 | 48.95021 | -0.37071 | 36185 ft | 443 kts | 287° |
| 2026-04-25 23:44 | 48.96537 | -0.46088 | 36183 ft | 441 kts | 286° |
| 2026-04-25 23:44 | 48.98047 | -0.55106 | 36187 ft | 443 kts | 286° |
| 2026-04-25 23:45 | 48.99558 | -0.64179 | 36199 ft | 443 kts | 287° |
| 2026-04-25 23:45 | 49.01054 | -0.73204 | 36186 ft | 442 kts | 285° |
| 2026-04-25 23:46 | 49.02547 | -0.82264 | 36183 ft | 442 kts | 286° |
| 2026-04-25 23:46 | 49.04035 | -0.91342 | 36192 ft | 442 kts | 285° |
| 2026-04-25 23:47 | 49.05509 | -1.00380 | 36188 ft | 443 kts | 285° |
| 2026-04-25 23:47 | 49.06976 | -1.09419 | 36194 ft | 441 kts | 285° |
| 2026-04-25 23:48 | 49.08443 | -1.18517 | 36187 ft | 442 kts | 285° |
| 2026-04-25 23:48 | 49.09912 | -1.27565 | 36191 ft | 441 kts | 286° |
| 2026-04-25 23:49 | 49.11372 | -1.36597 | 36197 ft | 441 kts | 286° |
| 2026-04-25 23:49 | 49.12832 | -1.45673 | 36205 ft | 440 kts | 285° |
| 2026-04-25 23:50 | 49.14279 | -1.54725 | 36200 ft | 442 kts | 285° |
| 2026-04-25 23:50 | 49.15721 | -1.63799 | 36196 ft | 441 kts | 285° |
| 2026-04-25 23:51 | 49.17155 | -1.72868 | 36208 ft | 443 kts | 285° |
| 2026-04-25 23:51 | 49.18588 | -1.81985 | 36207 ft | 443 kts | 285° |
| 2026-04-25 23:52 | 49.20021 | -1.91157 | 36216 ft | 442 kts | 285° |
| 2026-04-25 23:52 | 49.21434 | -2.00246 | 36212 ft | 441 kts | 285° |
| 2026-04-25 23:53 | 49.22895 | -2.09354 | 36224 ft | 441 kts | 286° |
| 2026-04-25 23:53 | 49.24461 | -2.18379 | 36216 ft | 439 kts | 286° |
| 2026-04-25 23:54 | 49.26002 | -2.27340 | 36215 ft | 440 kts | 286° |
| 2026-04-25 23:54 | 49.27546 | -2.36389 | 36215 ft | 439 kts | 286° |
| 2026-04-25 23:55 | 49.29073 | -2.45396 | 36207 ft | 441 kts | 287° |
| 2026-04-25 23:55 | 49.30593 | -2.54418 | 36213 ft | 440 kts | 286° |
| 2026-04-25 23:56 | 49.32106 | -2.63453 | 36212 ft | 439 kts | 286° |
| 2026-04-25 23:56 | 49.33622 | -2.72553 | 36217 ft | 439 kts | 285° |
| 2026-04-25 23:57 | 49.35113 | -2.81552 | 36215 ft | 436 kts | 285° |
| 2026-04-25 23:57 | 49.36589 | -2.90503 | 36210 ft | 436 kts | 285° |
| 2026-04-25 23:58 | 49.38063 | -2.99492 | 36210 ft | 437 kts | 285° |
| 2026-04-25 23:58 | 49.39537 | -3.08534 | 36208 ft | 436 kts | 285° |
| 2026-04-25 23:59 | 49.40999 | -3.17546 | 36207 ft | 436 kts | 285° |
| 2026-04-25 23:59 | 49.42448 | -3.26525 | 36202 ft | 437 kts | 285° |
| 2026-04-26 00:00 | 49.43655 | -3.34048 | 36209 ft | 436 kts | 285° |
| 2026-04-26 00:00 | 49.45338 | -3.44591 | 36204 ft | 438 kts | 285° |
| 2026-04-26 00:01 | 49.46781 | -3.53683 | 36207 ft | 435 kts | 285° |
| 2026-04-26 00:01 | 49.48199 | -3.62668 | 36205 ft | 436 kts | 285° |
| 2026-04-26 00:02 | 49.49618 | -3.71705 | 36210 ft | 436 kts | 284° |
| 2026-04-26 00:02 | 49.51031 | -3.80757 | 36213 ft | 435 kts | 284° |
| 2026-04-26 00:03 | 49.52428 | -3.89759 | 36219 ft | 435 kts | 284° |
| 2026-04-26 00:03 | 49.53827 | -3.98822 | 36223 ft | 437 kts | 283° |
| 2026-04-26 00:04 | 49.55217 | -4.07880 | 36228 ft | 437 kts | 283° |
| 2026-04-26 00:04 | 49.56605 | -4.16974 | 36226 ft | 436 kts | 283° |
| 2026-04-26 00:05 | 49.57978 | -4.26019 | 36225 ft | 435 kts | 283° |
| 2026-04-26 00:05 | 49.59609 | -4.34937 | 36231 ft | 435 kts | 292° |
| 2026-04-26 00:06 | 49.62210 | -4.43386 | 36224 ft | 438 kts | 295° |
| 2026-04-26 00:06 | 49.64859 | -4.51779 | 36222 ft | 437 kts | 295° |
| 2026-04-26 00:07 | 49.67481 | -4.60169 | 36218 ft | 436 kts | 295° |
| 2026-04-26 00:07 | 49.70091 | -4.68575 | 36218 ft | 437 kts | 294° |
| 2026-04-26 00:08 | 49.72713 | -4.77061 | 36213 ft | 437 kts | 294° |
| 2026-04-26 00:08 | 49.75301 | -4.85475 | 36213 ft | 439 kts | 294° |
| 2026-04-26 00:09 | 49.77906 | -4.93978 | 36212 ft | 437 kts | 294° |
| 2026-04-26 00:09 | 49.80486 | -5.02425 | 36214 ft | 437 kts | 295° |
| 2026-04-26 00:10 | 49.83067 | -5.10910 | 36213 ft | 438 kts | 294° |
| 2026-04-26 00:10 | 49.85662 | -5.19469 | 36215 ft | 439 kts | 294° |
| 2026-04-26 00:11 | 49.88237 | -5.27996 | 36214 ft | 438 kts | 294° |
| 2026-04-26 00:11 | 49.90794 | -5.36487 | 36215 ft | 439 kts | 294° |
| 2026-04-26 00:12 | 49.93364 | -5.45054 | 36213 ft | 439 kts | 294° |
| 2026-04-26 00:12 | 49.95926 | -5.53628 | 36211 ft | 438 kts | 294° |
| 2026-04-26 00:13 | 49.98486 | -5.62220 | 36216 ft | 439 kts | 293° |
| 2026-04-26 00:13 | 50.01015 | -5.70742 | 36223 ft | 440 kts | 292° |
| 2026-04-26 00:14 | 50.03571 | -5.79384 | 36220 ft | 439 kts | 292° |
| 2026-04-26 00:14 | 50.06117 | -5.88022 | 36206 ft | 441 kts | 292° |
| 2026-04-26 00:15 | 50.08639 | -5.96612 | 36221 ft | 440 kts | 292° |
| 2026-04-26 00:15 | 50.11187 | -6.05320 | 36221 ft | 442 kts | 292° |
| 2026-04-26 00:16 | 50.13722 | -6.14014 | 36229 ft | 440 kts | 292° |
| 2026-04-26 00:16 | 50.16244 | -6.22697 | 36233 ft | 443 kts | 292° |
| 2026-04-26 00:17 | 50.18763 | -6.31402 | 36236 ft | 443 kts | 292° |
| 2026-04-26 00:17 | 50.21281 | -6.40130 | 36232 ft | 444 kts | 292° |
| 2026-04-26 00:18 | 50.23806 | -6.48918 | 36231 ft | 443 kts | 292° |
| 2026-04-26 00:18 | 50.26311 | -6.57671 | 36223 ft | 444 kts | 292° |
| 2026-04-26 00:19 | 50.28828 | -6.66495 | 36226 ft | 445 kts | 291° |
| 2026-04-26 00:19 | 50.31337 | -6.75324 | 36228 ft | 445 kts | 291° |
| 2026-04-26 00:20 | 50.33849 | -6.84199 | 36235 ft | 448 kts | 291° |
| 2026-04-26 00:20 | 50.36336 | -6.93017 | 36232 ft | 447 kts | 291° |
| 2026-04-26 00:21 | 50.38838 | -7.01920 | 36228 ft | 448 kts | 291° |
| 2026-04-26 00:21 | 50.41338 | -7.10849 | 36229 ft | 447 kts | 291° |
| 2026-04-26 00:22 | 50.43818 | -7.19745 | 36230 ft | 448 kts | 291° |
| 2026-04-26 00:22 | 50.46281 | -7.28608 | 36231 ft | 449 kts | 291° |
| 2026-04-26 00:23 | 50.48762 | -7.37572 | 36225 ft | 447 kts | 290° |
| 2026-04-26 00:23 | 50.51228 | -7.46519 | 36225 ft | 448 kts | 290° |
| 2026-04-26 00:24 | 50.53697 | -7.55507 | 36226 ft | 449 kts | 290° |
| 2026-04-26 00:24 | 50.56154 | -7.64487 | 36225 ft | 448 kts | 290° |
| 2026-04-26 00:25 | 50.58587 | -7.73414 | 36230 ft | 447 kts | 290° |
| 2026-04-26 00:25 | 50.61021 | -7.82381 | 36229 ft | 447 kts | 290° |
| 2026-04-26 00:26 | 50.63467 | -7.91425 | 36231 ft | 449 kts | 290° |
| 2026-04-26 00:26 | 50.65882 | -8.00388 | 36235 ft | 448 kts | 290° |
| 2026-04-26 00:27 | 50.68855 | -8.09040 | 36219 ft | 453 kts | 297° |
| 2026-04-26 00:27 | 50.72039 | -8.17593 | 36215 ft | 453 kts | 297° |
| 2026-04-26 00:28 | 50.75167 | -8.26150 | 36215 ft | 451 kts | 296° |
| 2026-04-26 00:28 | 50.78268 | -8.34724 | 36228 ft | 451 kts | 296° |
| 2026-04-26 00:29 | 50.81353 | -8.43322 | 36222 ft | 453 kts | 296° |
| 2026-04-26 00:29 | 50.84415 | -8.51899 | 36221 ft | 450 kts | 296° |
| 2026-04-26 00:30 | 50.87489 | -8.60550 | 36218 ft | 451 kts | 296° |
| 2026-04-26 00:30 | 50.90539 | -8.69166 | 36213 ft | 450 kts | 295° |
| 2026-04-26 00:31 | 50.93583 | -8.77796 | 36218 ft | 450 kts | 295° |
| 2026-04-26 00:31 | 50.96613 | -8.86420 | 36221 ft | 452 kts | 295° |
| 2026-04-26 00:32 | 50.99653 | -8.95098 | 36223 ft | 450 kts | 294° |
| 2026-04-26 00:32 | 51.04199 | -9.08135 | 36213 ft | 451 kts | 295° |
| 2026-04-26 00:33 | 51.07210 | -9.16807 | 36223 ft | 451 kts | 294° |
| 2026-04-26 00:33 | 51.10238 | -9.25558 | 36223 ft | 451 kts | 294° |
| 2026-04-26 00:34 | 51.13258 | -9.34318 | 36223 ft | 452 kts | 294° |
| 2026-04-26 00:34 | 51.16272 | -9.43090 | 36218 ft | 453 kts | 294° |
| 2026-04-26 00:35 | 51.19279 | -9.51870 | 36205 ft | 453 kts | 295° |
| 2026-04-26 00:35 | 51.22272 | -9.60645 | 36231 ft | 456 kts | 294° |
| 2026-04-26 00:36 | 51.25289 | -9.69514 | 36203 ft | 453 kts | 294° |
| 2026-04-26 00:36 | 51.28277 | -9.78334 | 36213 ft | 455 kts | 294° |
| 2026-04-26 00:37 | 51.31249 | -9.87134 | 36218 ft | 454 kts | 294° |
| 2026-04-26 00:37 | 51.34228 | -9.95990 | 36233 ft | 454 kts | 293° |
| 2026-04-26 00:38 | 51.37220 | -10.04913 | 36207 ft | 454 kts | 294° |
| 2026-04-26 00:38 | 51.40180 | -10.13775 | 36200 ft | 456 kts | 294° |
| 2026-04-26 00:39 | 51.43162 | -10.22734 | 36224 ft | 458 kts | 294° |
| 2026-04-26 00:39 | 51.46142 | -10.31718 | 36225 ft | 458 kts | 294° |
| 2026-04-26 00:40 | 51.49112 | -10.40706 | 36231 ft | 458 kts | 294° |
| 2026-04-26 00:40 | 51.52080 | -10.49718 | 36240 ft | 459 kts | 294° |
| 2026-04-26 00:41 | 51.55035 | -10.58724 | 36210 ft | 458 kts | 294° |
| 2026-04-26 00:41 | 51.57986 | -10.67752 | 36227 ft | 459 kts | 292° |
| 2026-04-26 00:42 | 51.60941 | -10.76824 | 36227 ft | 458 kts | 293° |
| 2026-04-26 00:42 | 51.63868 | -10.85842 | 36221 ft | 458 kts | 293° |
| 2026-04-26 00:43 | 51.66806 | -10.94929 | 36219 ft | 459 kts | 292° |
| 2026-04-26 00:43 | 51.69740 | -11.04039 | 36219 ft | 458 kts | 293° |
| 2026-04-26 00:44 | 51.72670 | -11.13167 | 36203 ft | 460 kts | 293° |
| 2026-04-26 00:44 | 51.75586 | -11.22285 | 36196 ft | 459 kts | 293° |
| 2026-04-26 00:45 | 51.78497 | -11.31426 | 36227 ft | 461 kts | 293° |
| 2026-04-26 00:45 | 51.81410 | -11.40601 | 36222 ft | 461 kts | 293° |
| 2026-04-26 00:46 | 51.84315 | -11.49789 | 36209 ft | 460 kts | 293° |
| 2026-04-26 00:46 | 51.87211 | -11.58983 | 36225 ft | 460 kts | 293° |
| 2026-04-26 00:47 | 51.90097 | -11.68179 | 36225 ft | 459 kts | 292° |
| 2026-04-26 00:47 | 51.92986 | -11.77418 | 36210 ft | 459 kts | 292° |
| 2026-04-26 00:48 | 51.95849 | -11.86612 | 36214 ft | 461 kts | 292° |
| 2026-04-26 00:48 | 51.98717 | -11.95855 | 36209 ft | 462 kts | 292° |
| 2026-04-26 00:49 | 52.01680 | -12.05021 | 36205 ft | 464 kts | 295° |
| 2026-04-26 00:49 | 52.04910 | -12.14067 | 36204 ft | 463 kts | 295° |
| 2026-04-26 00:50 | 52.08107 | -12.23098 | 36207 ft | 464 kts | 295° |
| 2026-04-26 00:50 | 52.11284 | -12.32136 | 36208 ft | 463 kts | 295° |
| 2026-04-26 00:51 | 52.14460 | -12.41223 | 36207 ft | 462 kts | 295° |
| 2026-04-26 00:51 | 52.17606 | -12.50268 | 36198 ft | 461 kts | 295° |
| 2026-04-26 00:52 | 52.20764 | -12.59385 | 36200 ft | 463 kts | 295° |
| 2026-04-26 00:52 | 52.23885 | -12.68430 | 36205 ft | 463 kts | 295° |
| 2026-04-26 00:53 | 52.27034 | -12.77589 | 36189 ft | 462 kts | 295° |
| 2026-04-26 00:53 | 52.30156 | -12.86708 | 36192 ft | 462 kts | 295° |
| 2026-04-26 00:54 | 52.33273 | -12.95842 | 36190 ft | 462 kts | 295° |
| 2026-04-26 00:54 | 52.36380 | -13.04982 | 36200 ft | 463 kts | 295° |
| 2026-04-26 00:55 | 52.39489 | -13.14161 | 36188 ft | 462 kts | 295° |
| 2026-04-26 00:55 | 52.42584 | -13.23335 | 36157 ft | 461 kts | 295° |
| 2026-04-26 00:56 | 52.45664 | -13.32498 | 36160 ft | 463 kts | 295° |
| 2026-04-26 00:56 | 52.48766 | -13.41759 | 36176 ft | 462 kts | 295° |
| 2026-04-26 00:57 | 52.51829 | -13.50937 | 36200 ft | 463 kts | 295° |
| 2026-04-26 00:57 | 52.54905 | -13.60190 | 36182 ft | 462 kts | 295° |
| 2026-04-26 00:58 | 52.57963 | -13.69423 | 36156 ft | 462 kts | 294° |
| 2026-04-26 00:58 | 52.61026 | -13.78708 | 36183 ft | 464 kts | 294° |
| 2026-04-26 00:59 | 52.64081 | -13.87999 | 36193 ft | 463 kts | 294° |
| 2026-04-26 00:59 | 52.67131 | -13.97313 | 36163 ft | 463 kts | 294° |
| 2026-04-26 01:00 | 52.70164 | -14.06612 | 36186 ft | 464 kts | 294° |
| 2026-04-26 01:00 | 52.73186 | -14.15907 | 36169 ft | 461 kts | 294° |
| 2026-04-26 01:01 | 52.76190 | -14.25188 | 36167 ft | 463 kts | 294° |
| 2026-04-26 01:01 | 52.79202 | -14.34524 | 36169 ft | 461 kts | 294° |
| 2026-04-26 01:02 | 52.82204 | -14.43869 | 36150 ft | 463 kts | 294° |
| 2026-04-26 01:02 | 52.85201 | -14.53231 | 36166 ft | 461 kts | 294° |
| 2026-04-26 01:03 | 52.88195 | -14.62621 | 36165 ft | 463 kts | 294° |
| 2026-04-26 01:03 | 52.91175 | -14.72003 | 36166 ft | 462 kts | 294° |
| 2026-04-26 01:04 | 52.94134 | -14.81354 | 36164 ft | 462 kts | 294° |
| 2026-04-26 01:04 | 52.97102 | -14.90771 | 36131 ft | 461 kts | 294° |
| 2026-04-26 01:05 | 52.99966 | -15.00209 | 36162 ft | 459 kts | 288° |
| 2026-04-26 01:05 | 53.02237 | -15.10038 | 36476 ft | 457 kts | 287° |
| 2026-04-26 01:06 | 53.03355 | -15.14982 | 36246 ft | 457 kts | 287° |
| 2026-04-26 01:06 | 53.04453 | -15.19856 | 36202 ft | 452 kts | 287° |
| 2026-04-26 01:06 | 53.06656 | -15.29692 | 36167 ft | 455 kts | 287° |
| 2026-04-26 01:07 | 53.08841 | -15.39504 | 36161 ft | 455 kts | 287° |
| 2026-04-26 01:07 | 53.11024 | -15.49366 | 36144 ft | 456 kts | 287° |
| 2026-04-26 01:08 | 53.13196 | -15.59222 | 36152 ft | 455 kts | 287° |
| 2026-04-26 01:08 | 53.15346 | -15.69029 | 36150 ft | 453 kts | 287° |
| 2026-04-26 01:09 | 53.17487 | -15.78848 | 36153 ft | 453 kts | 287° |
| 2026-04-26 01:09 | 53.19623 | -15.88684 | 36154 ft | 453 kts | 287° |
| 2026-04-26 01:10 | 53.21743 | -15.98496 | 36150 ft | 452 kts | 287° |
| 2026-04-26 01:10 | 53.23853 | -16.08311 | 36159 ft | 451 kts | 287° |
| 2026-04-26 01:11 | 53.25957 | -16.18147 | 36175 ft | 452 kts | 287° |
| 2026-04-26 01:11 | 53.28055 | -16.27997 | 36135 ft | 451 kts | 287° |
| 2026-04-26 01:12 | 53.30143 | -16.37852 | 36156 ft | 451 kts | 287° |
| 2026-04-26 01:12 | 53.32213 | -16.47665 | 36135 ft | 450 kts | 287° |
| 2026-04-26 01:13 | 53.34272 | -16.57476 | 36142 ft | 450 kts | 287° |
| 2026-04-26 01:13 | 53.36331 | -16.67338 | 36123 ft | 448 kts | 286° |
| 2026-04-26 01:14 | 53.38366 | -16.77130 | 36117 ft | 449 kts | 286° |
| 2026-04-26 01:14 | 53.40397 | -16.86953 | 36109 ft | 448 kts | 286° |
| 2026-04-26 01:15 | 53.42426 | -16.96814 | 35832 ft | 448 kts | 286° |
| 2026-04-26 01:15 | 53.43435 | -17.01731 | 35987 ft | 445 kts | 286° |
| 2026-04-26 01:15 | 53.44421 | -17.06556 | 36383 ft | 447 kts | 286° |
| 2026-04-26 01:16 | 53.45430 | -17.11505 | 36271 ft | 450 kts | 286° |
| 2026-04-26 01:16 | 53.46439 | -17.16461 | 36138 ft | 448 kts | 287° |
| 2026-04-26 01:16 | 53.48437 | -17.26313 | 36119 ft | 447 kts | 286° |
| 2026-04-26 01:17 | 53.50413 | -17.36111 | 36117 ft | 446 kts | 287° |
| 2026-04-26 01:17 | 53.52387 | -17.45943 | 36113 ft | 446 kts | 286° |
| 2026-04-26 01:18 | 53.54356 | -17.55805 | 36172 ft | 446 kts | 287° |
| 2026-04-26 01:18 | 53.56319 | -17.65683 | 36106 ft | 445 kts | 285° |
| 2026-04-26 01:19 | 53.58256 | -17.75485 | 36122 ft | 446 kts | 285° |
| 2026-04-26 01:19 | 53.60202 | -17.85379 | 36116 ft | 448 kts | 285° |
| 2026-04-26 01:20 | 53.62141 | -17.95287 | 36116 ft | 447 kts | 285° |
| 2026-04-26 01:20 | 53.64065 | -18.05170 | 36134 ft | 445 kts | 285° |
| 2026-04-26 01:21 | 53.65978 | -18.15043 | 36141 ft | 444 kts | 285° |
| 2026-04-26 01:21 | 53.67878 | -18.24904 | 35819 ft | 443 kts | 285° |
| 2026-04-26 01:22 | 53.68818 | -18.29803 | 35969 ft | 441 kts | 285° |
| 2026-04-26 01:22 | 53.69752 | -18.34682 | 36065 ft | 441 kts | 285° |
| 2026-04-26 01:22 | 53.71641 | -18.44591 | 36108 ft | 446 kts | 285° |
| 2026-04-26 01:23 | 53.73519 | -18.54490 | 36050 ft | 446 kts | 285° |
| 2026-04-26 01:23 | 53.75388 | -18.64392 | 36094 ft | 444 kts | 285° |
| 2026-04-26 01:24 | 53.77257 | -18.74346 | 36094 ft | 444 kts | 285° |
| 2026-04-26 01:24 | 53.79097 | -18.84197 | 36082 ft | 443 kts | 285° |
| 2026-04-26 01:25 | 53.80936 | -18.94101 | 36098 ft | 442 kts | 285° |
| 2026-04-26 01:25 | 53.82762 | -19.03981 | 36082 ft | 441 kts | 285° |
| 2026-04-26 01:26 | 53.84575 | -19.13851 | 36071 ft | 443 kts | 285° |
| 2026-04-26 01:26 | 53.86391 | -19.23782 | 36075 ft | 441 kts | 285° |
| 2026-04-26 01:27 | 53.88182 | -19.33632 | 36084 ft | 442 kts | 285° |
| 2026-04-26 01:27 | 53.89976 | -19.43553 | 36046 ft | 439 kts | 285° |
| 2026-04-26 01:28 | 53.91742 | -19.53374 | 36081 ft | 440 kts | 285° |
| 2026-04-26 01:28 | 53.93504 | -19.63220 | 36085 ft | 439 kts | 285° |
| 2026-04-26 01:29 | 53.95269 | -19.73137 | 36078 ft | 438 kts | 284° |
| 2026-04-26 01:29 | 53.97015 | -19.83004 | 36069 ft | 439 kts | 284° |
| 2026-04-26 01:30 | 53.98750 | -19.92866 | 36073 ft | 438 kts | 284° |
| 2026-04-26 01:30 | 54.00378 | -20.02767 | 36099 ft | 438 kts | 282° |
| 2026-04-26 01:31 | 54.01831 | -20.12790 | 36070 ft | 438 kts | 282° |
| 2026-04-26 01:31 | 54.03266 | -20.22790 | 36128 ft | 437 kts | 282° |
| 2026-04-26 01:32 | 54.04697 | -20.32847 | 36063 ft | 437 kts | 282° |
| 2026-04-26 01:32 | 54.06107 | -20.42838 | 36095 ft | 437 kts | 282° |
| 2026-04-26 01:33 | 54.07509 | -20.52827 | 36058 ft | 434 kts | 282° |
| 2026-04-26 01:33 | 54.08903 | -20.62842 | 36059 ft | 437 kts | 282° |
| 2026-04-26 01:34 | 54.10286 | -20.72837 | 36064 ft | 436 kts | 281° |
| 2026-04-26 01:34 | 54.11655 | -20.82805 | 36019 ft | 437 kts | 281° |
| 2026-04-26 01:35 | 54.13026 | -20.92851 | 36115 ft | 435 kts | 281° |
| 2026-04-26 01:35 | 54.14379 | -21.02832 | 36085 ft | 436 kts | 281° |
| 2026-04-26 01:36 | 54.15736 | -21.12905 | 36100 ft | 434 kts | 281° |
| 2026-04-26 01:37 | 54.17741 | -21.27925 | 36101 ft | 436 kts | 281° |
| 2026-04-26 01:37 | 54.19062 | -21.37912 | 36062 ft | 435 kts | 281° |
| 2026-04-26 01:38 | 54.20387 | -21.47990 | 36015 ft | 434 kts | 281° |
| 2026-04-26 01:38 | 54.21688 | -21.57953 | 36051 ft | 435 kts | 281° |
| 2026-04-26 01:39 | 54.22992 | -21.68017 | 36292 ft | 433 kts | 281° |
| 2026-04-26 01:39 | 54.23639 | -21.73034 | 35804 ft | 432 kts | 281° |
| 2026-04-26 01:39 | 54.24271 | -21.77952 | 36227 ft | 426 kts | 281° |
| 2026-04-26 01:39 | 54.24905 | -21.82903 | 35917 ft | 431 kts | 281° |
| 2026-04-26 01:40 | 54.25541 | -21.87896 | 35958 ft | 431 kts | 281° |
| 2026-04-26 01:40 | 54.26811 | -21.97902 | 36066 ft | 435 kts | 281° |
| 2026-04-26 01:41 | 54.28078 | -22.07957 | 36326 ft | 429 kts | 281° |
| 2026-04-26 01:41 | 54.28705 | -22.12962 | 36163 ft | 431 kts | 281° |
| 2026-04-26 01:41 | 54.29326 | -22.17935 | 35869 ft | 427 kts | 281° |
| 2026-04-26 01:41 | 54.29940 | -22.22866 | 35991 ft | 427 kts | 281° |
| 2026-04-26 01:42 | 54.30557 | -22.27848 | 36025 ft | 430 kts | 281° |
| 2026-04-26 01:42 | 54.31173 | -22.32836 | 36286 ft | 434 kts | 281° |
| 2026-04-26 01:42 | 54.31794 | -22.37887 | 36092 ft | 431 kts | 281° |
| 2026-04-26 01:43 | 54.33011 | -22.47819 | 36029 ft | 428 kts | 281° |
| 2026-04-26 01:43 | 54.33614 | -22.52777 | 35782 ft | 430 kts | 281° |
| 2026-04-26 01:43 | 54.34219 | -22.57769 | 35883 ft | 429 kts | 281° |
| 2026-04-26 01:43 | 54.34822 | -22.62762 | 36095 ft | 433 kts | 281° |
| 2026-04-26 01:44 | 54.35429 | -22.67806 | 36163 ft | 427 kts | 280° |
| 2026-04-26 01:44 | 54.36023 | -22.72758 | 36034 ft | 430 kts | 280° |
| 2026-04-26 01:44 | 54.36622 | -22.77770 | 36067 ft | 428 kts | 280° |
| 2026-04-26 01:45 | 54.37797 | -22.87663 | 36081 ft | 427 kts | 280° |
| 2026-04-26 01:45 | 54.38979 | -22.97686 | 36019 ft | 428 kts | 280° |
| 2026-04-26 01:46 | 54.40146 | -23.07655 | 36084 ft | 428 kts | 280° |
| 2026-04-26 01:46 | 54.41301 | -23.17597 | 36046 ft | 428 kts | 280° |
| 2026-04-26 01:47 | 54.42455 | -23.27612 | 36028 ft | 428 kts | 280° |
| 2026-04-26 01:47 | 54.43602 | -23.37644 | 36065 ft | 430 kts | 280° |
| 2026-04-26 01:48 | 54.44738 | -23.47653 | 35832 ft | 428 kts | 280° |
| 2026-04-26 01:48 | 54.45295 | -23.52596 | 35945 ft | 426 kts | 280° |
| 2026-04-26 01:48 | 54.45859 | -23.57610 | 36239 ft | 430 kts | 280° |
| 2026-04-26 01:48 | 54.46419 | -23.62624 | 36064 ft | 432 kts | 280° |
| 2026-04-26 01:49 | 54.46983 | -23.67681 | 36044 ft | 427 kts | 279° |
| 2026-04-26 01:49 | 54.47533 | -23.72633 | 35789 ft | 427 kts | 279° |
| 2026-04-26 01:49 | 54.48087 | -23.77638 | 35856 ft | 430 kts | 279° |
| 2026-04-26 01:49 | 54.48644 | -23.82694 | 36029 ft | 428 kts | 279° |
| 2026-04-26 01:50 | 54.49194 | -23.87715 | 36019 ft | 432 kts | 279° |
| 2026-04-26 01:50 | 54.49745 | -23.92754 | 36332 ft | 432 kts | 279° |
| 2026-04-26 01:50 | 54.50301 | -23.97865 | 36284 ft | 431 kts | 279° |
| 2026-04-26 01:50 | 54.50841 | -24.02854 | 35997 ft | 429 kts | 279° |
| 2026-04-26 01:51 | 54.51383 | -24.07872 | 36297 ft | 431 kts | 279° |
| 2026-04-26 01:51 | 54.51930 | -24.12961 | 35842 ft | 432 kts | 279° |
| 2026-04-26 01:51 | 54.52464 | -24.17945 | 35929 ft | 424 kts | 279° |
| 2026-04-26 01:52 | 54.53530 | -24.27973 | 36240 ft | 431 kts | 279° |
| 2026-04-26 01:52 | 54.54066 | -24.33049 | 36060 ft | 430 kts | 279° |
| 2026-04-26 01:52 | 54.54591 | -24.38035 | 36044 ft | 425 kts | 279° |
| 2026-04-26 01:52 | 54.55118 | -24.43060 | 35873 ft | 425 kts | 279° |
| 2026-04-26 01:53 | 54.55633 | -24.47999 | 36226 ft | 426 kts | 279° |
| 2026-04-26 01:53 | 54.56163 | -24.53093 | 35808 ft | 431 kts | 279° |
| 2026-04-26 01:53 | 54.56682 | -24.58111 | 36207 ft | 426 kts | 279° |
| 2026-04-26 01:53 | 54.57202 | -24.63161 | 35905 ft | 430 kts | 279° |
| 2026-04-26 01:54 | 54.57719 | -24.68192 | 36264 ft | 428 kts | 278° |
| 2026-04-26 01:54 | 54.58752 | -24.78329 | 35840 ft | 430 kts | 278° |
| 2026-04-26 01:54 | 54.59257 | -24.83311 | 36275 ft | 426 kts | 278° |
| 2026-04-26 01:55 | 54.59765 | -24.88347 | 36293 ft | 429 kts | 278° |
| 2026-04-26 01:55 | 54.60275 | -24.93430 | 35946 ft | 430 kts | 278° |
| 2026-04-26 01:55 | 54.60780 | -24.98481 | 36277 ft | 430 kts | 278° |
| 2026-04-26 01:55 | 54.61283 | -25.03533 | 35879 ft | 431 kts | 278° |
| 2026-04-26 01:56 | 54.61785 | -25.08599 | 35973 ft | 427 kts | 278° |
| 2026-04-26 01:56 | 54.62777 | -25.18687 | 35998 ft | 431 kts | 278° |
| 2026-04-26 01:57 | 54.63773 | -25.28891 | 36007 ft | 430 kts | 278° |
| 2026-04-26 01:57 | 54.64749 | -25.38994 | 36050 ft | 431 kts | 278° |
| 2026-04-26 01:58 | 54.65720 | -25.49133 | 35905 ft | 432 kts | 278° |
| 2026-04-26 01:58 | 54.66685 | -25.59295 | 35991 ft | 428 kts | 278° |
| 2026-04-26 01:59 | 54.67640 | -25.69458 | 35996 ft | 432 kts | 277° |
| 2026-04-26 01:59 | 54.68117 | -25.74572 | 36267 ft | 432 kts | 277° |
| 2026-04-26 01:59 | 54.68594 | -25.79695 | 35939 ft | 429 kts | 277° |
| 2026-04-26 02:00 | 54.69526 | -25.89811 | 36013 ft | 433 kts | 277° |
| 2026-04-26 02:00 | 54.70464 | -26.00071 | 36306 ft | 432 kts | 277° |
| 2026-04-26 02:00 | 54.70926 | -26.05167 | 35870 ft | 434 kts | 277° |
| 2026-04-26 02:01 | 54.71389 | -26.10296 | 35889 ft | 427 kts | 277° |
| 2026-04-26 02:01 | 54.71839 | -26.15298 | 35990 ft | 428 kts | 277° |
| 2026-04-26 02:01 | 54.72293 | -26.20388 | 36000 ft | 431 kts | 277° |
| 2026-04-26 02:02 | 54.73206 | -26.30676 | 36025 ft | 433 kts | 277° |
| 2026-04-26 02:02 | 54.74106 | -26.40920 | 35982 ft | 432 kts | 277° |
| 2026-04-26 02:03 | 54.74995 | -26.51149 | 36007 ft | 434 kts | 277° |
| 2026-04-26 02:03 | 54.75878 | -26.61397 | 35978 ft | 433 kts | 277° |
| 2026-04-26 02:04 | 54.76757 | -26.71720 | 35997 ft | 433 kts | 276° |
| 2026-04-26 02:04 | 54.77623 | -26.81988 | 36020 ft | 434 kts | 276° |
| 2026-04-26 02:05 | 54.78485 | -26.92319 | 35970 ft | 434 kts | 276° |
| 2026-04-26 02:05 | 54.79334 | -27.02611 | 36015 ft | 435 kts | 276° |
| 2026-04-26 02:06 | 54.80180 | -27.12959 | 35993 ft | 434 kts | 276° |
| 2026-04-26 02:06 | 54.81012 | -27.23263 | 36002 ft | 433 kts | 276° |
| 2026-04-26 02:07 | 54.81836 | -27.33572 | 36001 ft | 434 kts | 276° |
| 2026-04-26 02:07 | 54.82653 | -27.43914 | 35976 ft | 434 kts | 276° |
| 2026-04-26 02:08 | 54.83458 | -27.54226 | 35957 ft | 435 kts | 276° |
| 2026-04-26 02:08 | 54.84258 | -27.64574 | 35999 ft | 436 kts | 276° |
| 2026-04-26 02:09 | 54.85054 | -27.75005 | 35960 ft | 437 kts | 275° |
| 2026-04-26 02:09 | 54.85841 | -27.85418 | 35985 ft | 436 kts | 275° |
| 2026-04-26 02:10 | 54.86616 | -27.95806 | 35972 ft | 434 kts | 275° |
| 2026-04-26 02:10 | 54.87382 | -28.06200 | 35977 ft | 436 kts | 275° |
| 2026-04-26 02:11 | 54.88137 | -28.16561 | 35963 ft | 438 kts | 275° |
| 2026-04-26 02:11 | 54.88887 | -28.26992 | 35968 ft | 437 kts | 275° |
| 2026-04-26 02:12 | 54.89630 | -28.37437 | 35979 ft | 437 kts | 275° |
| 2026-04-26 02:12 | 54.90365 | -28.47912 | 35964 ft | 438 kts | 275° |
| 2026-04-26 02:13 | 54.91088 | -28.58341 | 35958 ft | 438 kts | 275° |
| 2026-04-26 02:13 | 54.91804 | -28.68808 | 35987 ft | 438 kts | 274° |
| 2026-04-26 02:14 | 54.92514 | -28.79312 | 35984 ft | 438 kts | 274° |
| 2026-04-26 02:14 | 54.93211 | -28.89771 | 35982 ft | 438 kts | 274° |
| 2026-04-26 02:15 | 54.93897 | -29.00201 | 35967 ft | 437 kts | 274° |
| 2026-04-26 02:15 | 54.94577 | -29.10684 | 35973 ft | 439 kts | 274° |
| 2026-04-26 02:16 | 54.95252 | -29.21219 | 35967 ft | 437 kts | 274° |
| 2026-04-26 02:16 | 54.95913 | -29.31698 | 35968 ft | 439 kts | 274° |
| 2026-04-26 02:17 | 54.96566 | -29.42185 | 35988 ft | 439 kts | 274° |
| 2026-04-26 02:17 | 54.97210 | -29.52665 | 35958 ft | 436 kts | 274° |
| 2026-04-26 02:18 | 54.97845 | -29.63180 | 35966 ft | 440 kts | 274° |
| 2026-04-26 02:18 | 54.98474 | -29.73728 | 35958 ft | 439 kts | 273° |
| 2026-04-26 02:19 | 54.99092 | -29.84241 | 35974 ft | 437 kts | 272° |
| 2026-04-26 02:19 | 54.99694 | -29.94653 | 35959 ft | 438 kts | 273° |
| 2026-04-26 02:20 | 55.00191 | -30.05225 | 35932 ft | 437 kts | 271° |
| 2026-04-26 02:20 | 55.00624 | -30.15712 | 35951 ft | 437 kts | 271° |
| 2026-04-26 02:21 | 55.01043 | -30.26209 | 35953 ft | 436 kts | 271° |
| 2026-04-26 02:21 | 55.01449 | -30.36682 | 35932 ft | 436 kts | 271° |
| 2026-04-26 02:22 | 55.01846 | -30.47207 | 35937 ft | 438 kts | 271° |
| 2026-04-26 02:22 | 55.02235 | -30.57744 | 35931 ft | 437 kts | 271° |
| 2026-04-26 02:23 | 55.02612 | -30.68254 | 35914 ft | 436 kts | 270° |
| 2026-04-26 02:23 | 55.02981 | -30.78796 | 35956 ft | 440 kts | 270° |
| 2026-04-26 02:24 | 55.03344 | -30.89401 | 35919 ft | 436 kts | 270° |
| 2026-04-26 02:24 | 55.03694 | -30.99928 | 35921 ft | 437 kts | 270° |
| 2026-04-26 02:25 | 55.04034 | -31.10398 | 35842 ft | 436 kts | 270° |
| 2026-04-26 02:25 | 55.04365 | -31.20914 | 35944 ft | 438 kts | 270° |
| 2026-04-26 02:25 | 55.04529 | -31.26187 | 35818 ft | 435 kts | 270° |
| 2026-04-26 02:26 | 55.04689 | -31.31453 | 35921 ft | 436 kts | 270° |
| 2026-04-26 02:26 | 55.05003 | -31.42001 | 36200 ft | 439 kts | 270° |
| 2026-04-26 02:26 | 55.05158 | -31.47318 | 35830 ft | 439 kts | 270° |
| 2026-04-26 02:27 | 55.05311 | -31.52621 | 35825 ft | 438 kts | 270° |
| 2026-04-26 02:27 | 55.05459 | -31.57857 | 36066 ft | 439 kts | 270° |
| 2026-04-26 02:27 | 55.05607 | -31.63186 | 35919 ft | 438 kts | 270° |
| 2026-04-26 02:28 | 55.05894 | -31.73711 | 35914 ft | 438 kts | 269° |
| 2026-04-26 02:28 | 55.06172 | -31.84287 | 35891 ft | 436 kts | 269° |
| 2026-04-26 02:29 | 55.06439 | -31.94774 | 35897 ft | 436 kts | 269° |
| 2026-04-26 02:29 | 55.06698 | -32.05315 | 35904 ft | 438 kts | 269° |
| 2026-04-26 02:30 | 55.06949 | -32.15886 | 35876 ft | 435 kts | 269° |
| 2026-04-26 02:30 | 55.07189 | -32.26394 | 35871 ft | 438 kts | 269° |
| 2026-04-26 02:31 | 55.07421 | -32.36934 | 35865 ft | 439 kts | 269° |
| 2026-04-26 02:31 | 55.07646 | -32.47586 | 35872 ft | 439 kts | 269° |
| 2026-04-26 02:32 | 55.07859 | -32.58106 | 35623 ft | 441 kts | 269° |
| 2026-04-26 02:32 | 55.07964 | -32.63425 | 36108 ft | 439 kts | 269° |
| 2026-04-26 02:32 | 55.08065 | -32.68742 | 35933 ft | 440 kts | 268° |
| 2026-04-26 02:32 | 55.08165 | -32.74039 | 35618 ft | 437 kts | 268° |
| 2026-04-26 02:33 | 55.08262 | -32.79287 | 35770 ft | 435 kts | 268° |
| 2026-04-26 02:33 | 55.08356 | -32.84599 | 35907 ft | 439 kts | 268° |
| 2026-04-26 02:33 | 55.08447 | -32.89829 | 35843 ft | 440 kts | 268° |
| 2026-04-26 02:34 | 55.08627 | -33.00541 | 35895 ft | 441 kts | 268° |
| 2026-04-26 02:34 | 55.08796 | -33.11157 | 35864 ft | 442 kts | 268° |
| 2026-04-26 02:35 | 55.08956 | -33.21817 | 35797 ft | 440 kts | 268° |
| 2026-04-26 02:35 | 55.09107 | -33.32538 | 35818 ft | 445 kts | 268° |
| 2026-04-26 02:36 | 55.09250 | -33.43261 | 35912 ft | 443 kts | 268° |
| 2026-04-26 02:36 | 55.09317 | -33.48563 | 35792 ft | 442 kts | 268° |
| 2026-04-26 02:36 | 55.09382 | -33.53902 | 35891 ft | 445 kts | 268° |
| 2026-04-26 02:36 | 55.09446 | -33.59299 | 36066 ft | 445 kts | 268° |
| 2026-04-26 02:37 | 55.09507 | -33.64698 | 35764 ft | 442 kts | 268° |
| 2026-04-26 02:37 | 55.09565 | -33.70014 | 36108 ft | 441 kts | 266° |
| 2026-04-26 02:37 | 55.09620 | -33.75351 | 35689 ft | 446 kts | 266° |
| 2026-04-26 02:37 | 55.09674 | -33.80748 | 36016 ft | 442 kts | 266° |
| 2026-04-26 02:38 | 55.09725 | -33.86064 | 35880 ft | 445 kts | 266° |
| 2026-04-26 02:38 | 55.09820 | -33.96795 | 35830 ft | 446 kts | 266° |
| 2026-04-26 02:39 | 55.09906 | -34.07507 | 35802 ft | 442 kts | 267° |
| 2026-04-26 02:39 | 55.09983 | -34.18289 | 35842 ft | 447 kts | 266° |
| 2026-04-26 02:40 | 55.10050 | -34.29030 | 35830 ft | 444 kts | 266° |
| 2026-04-26 02:40 | 55.10080 | -34.34371 | 35678 ft | 445 kts | 266° |
| 2026-04-26 02:40 | 55.10107 | -34.39775 | 35692 ft | 449 kts | 266° |
| 2026-04-26 02:41 | 55.10157 | -34.50662 | 35737 ft | 448 kts | 266° |
| 2026-04-26 02:41 | 55.10195 | -34.61488 | 36056 ft | 451 kts | 266° |
| 2026-04-26 02:41 | 55.10212 | -34.66983 | 35777 ft | 450 kts | 265° |
| 2026-04-26 02:42 | 55.10225 | -34.72429 | 35799 ft | 450 kts | 265° |
| 2026-04-26 02:42 | 55.10245 | -34.83288 | 35717 ft | 451 kts | 265° |
| 2026-04-26 02:43 | 55.10256 | -34.99613 | 35848 ft | 453 kts | 265° |
| 2026-04-26 02:43 | 55.10255 | -35.05094 | 35721 ft | 451 kts | 265° |
| 2026-04-26 02:43 | 55.10252 | -35.10554 | 35776 ft | 453 kts | 265° |
| 2026-04-26 02:44 | 55.10238 | -35.21513 | 35784 ft | 453 kts | 265° |
| 2026-04-26 02:44 | 55.10212 | -35.32525 | 35734 ft | 456 kts | 266° |
| 2026-04-26 02:45 | 55.10179 | -35.43469 | 35798 ft | 457 kts | 265° |
| 2026-04-26 02:45 | 55.10135 | -35.54544 | 35756 ft | 457 kts | 265° |
| 2026-04-26 02:46 | 55.10080 | -35.65559 | 35794 ft | 455 kts | 265° |
| 2026-04-26 02:46 | 55.10016 | -35.76601 | 36012 ft | 457 kts | 265° |
| 2026-04-26 02:47 | 55.09980 | -35.82116 | 35813 ft | 458 kts | 265° |
| 2026-04-26 02:47 | 55.09942 | -35.87681 | 35556 ft | 453 kts | 265° |
| 2026-04-26 02:47 | 55.09903 | -35.93093 | 35928 ft | 453 kts | 265° |
| 2026-04-26 02:47 | 55.09858 | -35.98605 | 35520 ft | 460 kts | 265° |
| 2026-04-26 02:48 | 55.09812 | -36.04139 | 35853 ft | 457 kts | 265° |
| 2026-04-26 02:48 | 55.09763 | -36.09719 | 35746 ft | 459 kts | 265° |
| 2026-04-26 02:48 | 55.09659 | -36.20810 | 35739 ft | 458 kts | 265° |
| 2026-04-26 02:49 | 55.09544 | -36.31884 | 35481 ft | 458 kts | 265° |
| 2026-04-26 02:49 | 55.09484 | -36.37388 | 35887 ft | 455 kts | 265° |
| 2026-04-26 02:49 | 55.09420 | -36.42902 | 35809 ft | 461 kts | 265° |
| 2026-04-26 02:50 | 55.09286 | -36.53976 | 35733 ft | 458 kts | 265° |
| 2026-04-26 02:50 | 55.09139 | -36.65151 | 35740 ft | 461 kts | 264° |
| 2026-04-26 02:51 | 55.08985 | -36.76208 | 35707 ft | 461 kts | 264° |
| 2026-04-26 02:51 | 55.08818 | -36.87381 | 35694 ft | 462 kts | 264° |
| 2026-04-26 02:52 | 55.08641 | -36.98570 | 35707 ft | 462 kts | 264° |
| 2026-04-26 02:52 | 55.08455 | -37.09681 | 35697 ft | 462 kts | 264° |
| 2026-04-26 02:53 | 55.08257 | -37.20926 | 35707 ft | 464 kts | 264° |
| 2026-04-26 02:53 | 55.08049 | -37.32121 | 35684 ft | 463 kts | 264° |
| 2026-04-26 02:54 | 55.07831 | -37.43321 | 35702 ft | 464 kts | 264° |
| 2026-04-26 02:54 | 55.07603 | -37.54480 | 35672 ft | 464 kts | 264° |
| 2026-04-26 02:55 | 55.07365 | -37.65688 | 35669 ft | 463 kts | 263° |
| 2026-04-26 02:55 | 55.07116 | -37.76877 | 35683 ft | 464 kts | 263° |
| 2026-04-26 02:56 | 55.06855 | -37.88101 | 35681 ft | 464 kts | 263° |
| 2026-04-26 02:56 | 55.06585 | -37.99333 | 35654 ft | 465 kts | 263° |
| 2026-04-26 02:57 | 55.06305 | -38.10538 | 35660 ft | 466 kts | 263° |
| 2026-04-26 02:57 | 55.06013 | -38.21790 | 35660 ft | 466 kts | 263° |
| 2026-04-26 02:58 | 55.05711 | -38.33044 | 35668 ft | 466 kts | 263° |
| 2026-04-26 02:58 | 55.05398 | -38.44288 | 35657 ft | 468 kts | 263° |
| 2026-04-26 02:59 | 55.05075 | -38.55550 | 35662 ft | 467 kts | 263° |
| 2026-04-26 02:59 | 55.04740 | -38.66842 | 35643 ft | 468 kts | 262° |
| 2026-04-26 03:00 | 55.04396 | -38.78112 | 35650 ft | 469 kts | 262° |
| 2026-04-26 03:00 | 55.04039 | -38.89426 | 35614 ft | 469 kts | 262° |
| 2026-04-26 03:01 | 55.03671 | -39.00773 | 35647 ft | 469 kts | 262° |
| 2026-04-26 03:01 | 55.03295 | -39.12053 | 35643 ft | 469 kts | 262° |
| 2026-04-26 03:02 | 55.02906 | -39.23376 | 35632 ft | 471 kts | 262° |
| 2026-04-26 03:02 | 55.02504 | -39.34772 | 35614 ft | 471 kts | 262° |
| 2026-04-26 03:03 | 55.02096 | -39.46077 | 35631 ft | 471 kts | 262° |
| 2026-04-26 03:03 | 55.01674 | -39.57448 | 35621 ft | 472 kts | 262° |
| 2026-04-26 03:04 | 55.01241 | -39.68829 | 35604 ft | 472 kts | 262° |
| 2026-04-26 03:04 | 55.00798 | -39.80195 | 35615 ft | 472 kts | 262° |
| 2026-04-26 03:05 | 55.00341 | -39.91608 | 35609 ft | 474 kts | 262° |
| 2026-04-26 03:05 | 54.99346 | -40.02792 | 35625 ft | 469 kts | 252° |
| 2026-04-26 03:06 | 54.97795 | -40.13753 | 35618 ft | 468 kts | 252° |
| 2026-04-26 03:06 | 54.96191 | -40.24677 | 35597 ft | 471 kts | 251° |
| 2026-04-26 03:07 | 54.94539 | -40.35668 | 35585 ft | 471 kts | 251° |
| 2026-04-26 03:07 | 54.92866 | -40.46614 | 35562 ft | 473 kts | 251° |
| 2026-04-26 03:08 | 54.91159 | -40.57663 | 35591 ft | 473 kts | 251° |
| 2026-04-26 03:08 | 54.89453 | -40.68605 | 35587 ft | 473 kts | 250° |
| 2026-04-26 03:09 | 54.87721 | -40.79622 | 35618 ft | 474 kts | 250° |
| 2026-04-26 03:09 | 54.85990 | -40.90557 | 35586 ft | 475 kts | 250° |
| 2026-04-26 03:10 | 54.84228 | -41.01610 | 35598 ft | 476 kts | 250° |
| 2026-04-26 03:10 | 54.82456 | -41.12652 | 35586 ft | 478 kts | 250° |
| 2026-04-26 03:11 | 54.80676 | -41.23673 | 35578 ft | 476 kts | 250° |
| 2026-04-26 03:11 | 54.78879 | -41.34723 | 35534 ft | 477 kts | 250° |
| 2026-04-26 03:12 | 54.77089 | -41.45658 | 35576 ft | 477 kts | 250° |
| 2026-04-26 03:12 | 54.75268 | -41.56711 | 35551 ft | 479 kts | 250° |
| 2026-04-26 03:13 | 54.73444 | -41.67716 | 35562 ft | 478 kts | 250° |
| 2026-04-26 03:13 | 54.71597 | -41.78783 | 35574 ft | 480 kts | 250° |
| 2026-04-26 03:14 | 54.69751 | -41.89778 | 35548 ft | 479 kts | 250° |
| 2026-04-26 03:14 | 54.67894 | -42.00774 | 35548 ft | 481 kts | 250° |
| 2026-04-26 03:15 | 54.66013 | -42.11836 | 35570 ft | 481 kts | 250° |
| 2026-04-26 03:15 | 54.64117 | -42.22919 | 35545 ft | 481 kts | 250° |
| 2026-04-26 03:16 | 54.62225 | -42.33904 | 35549 ft | 483 kts | 250° |
| 2026-04-26 03:16 | 54.60303 | -42.45001 | 35577 ft | 483 kts | 250° |
| 2026-04-26 03:17 | 54.58376 | -42.56059 | 35564 ft | 484 kts | 250° |
| 2026-04-26 03:17 | 54.56440 | -42.67094 | 35546 ft | 485 kts | 249° |
| 2026-04-26 03:18 | 54.54490 | -42.78147 | 35535 ft | 485 kts | 249° |
| 2026-04-26 03:18 | 54.52529 | -42.89189 | 35551 ft | 486 kts | 249° |
| 2026-04-26 03:19 | 54.50550 | -43.00267 | 35573 ft | 486 kts | 249° |
| 2026-04-26 03:19 | 54.48572 | -43.11277 | 35557 ft | 487 kts | 249° |
| 2026-04-26 03:20 | 54.46564 | -43.22385 | 35561 ft | 488 kts | 249° |
| 2026-04-26 03:20 | 54.44547 | -43.33472 | 35566 ft | 488 kts | 249° |
| 2026-04-26 03:21 | 54.42524 | -43.44531 | 35524 ft | 488 kts | 249° |
| 2026-04-26 03:21 | 54.40485 | -43.55606 | 35536 ft | 489 kts | 249° |
| 2026-04-26 03:22 | 54.38436 | -43.66669 | 35542 ft | 490 kts | 248° |
| 2026-04-26 03:22 | 54.36377 | -43.77725 | 35531 ft | 489 kts | 249° |
| 2026-04-26 03:23 | 54.34303 | -43.88791 | 35538 ft | 490 kts | 248° |
| 2026-04-26 03:23 | 54.32210 | -43.99893 | 35539 ft | 491 kts | 248° |
| 2026-04-26 03:24 | 54.30106 | -44.10992 | 35552 ft | 493 kts | 249° |
| 2026-04-26 03:24 | 54.27988 | -44.22099 | 35517 ft | 492 kts | 249° |
| 2026-04-26 03:25 | 54.25862 | -44.33178 | 35543 ft | 493 kts | 249° |
| 2026-04-26 03:25 | 54.23729 | -44.44237 | 35510 ft | 492 kts | 249° |
| 2026-04-26 03:26 | 54.21566 | -44.55377 | 35519 ft | 496 kts | 249° |
| 2026-04-26 03:26 | 54.19394 | -44.66509 | 35547 ft | 496 kts | 248° |
| 2026-04-26 03:27 | 54.17224 | -44.77558 | 35527 ft | 498 kts | 248° |
| 2026-04-26 03:27 | 54.15015 | -44.88746 | 35534 ft | 499 kts | 248° |
| 2026-04-26 03:28 | 54.12800 | -44.99902 | 35533 ft | 499 kts | 248° |
| 2026-04-26 03:28 | 54.10584 | -45.11002 | 35547 ft | 496 kts | 248° |
| 2026-04-26 03:29 | 54.08343 | -45.22156 | 35542 ft | 500 kts | 249° |
| 2026-04-26 03:29 | 54.06098 | -45.33271 | 35541 ft | 500 kts | 249° |
| 2026-04-26 03:30 | 54.03834 | -45.44412 | 35552 ft | 502 kts | 249° |
| 2026-04-26 03:30 | 54.01557 | -45.55561 | 35526 ft | 503 kts | 249° |
| 2026-04-26 03:31 | 53.99261 | -45.66741 | 35511 ft | 502 kts | 248° |
| 2026-04-26 03:31 | 53.96948 | -45.77936 | 35482 ft | 502 kts | 248° |
| 2026-04-26 03:32 | 53.94638 | -45.89055 | 35502 ft | 503 kts | 248° |
| 2026-04-26 03:32 | 53.92325 | -46.00128 | 35537 ft | 503 kts | 248° |
| 2026-04-26 03:33 | 53.89985 | -46.11263 | 35526 ft | 504 kts | 248° |
| 2026-04-26 03:33 | 53.87632 | -46.22406 | 35554 ft | 504 kts | 248° |
| 2026-04-26 03:34 | 53.85255 | -46.33598 | 35505 ft | 504 kts | 248° |
| 2026-04-26 03:34 | 53.82892 | -46.44663 | 35558 ft | 504 kts | 249° |
| 2026-04-26 03:35 | 53.80500 | -46.55803 | 35556 ft | 504 kts | 249° |
| 2026-04-26 03:35 | 53.78095 | -46.66944 | 35525 ft | 506 kts | 248° |
| 2026-04-26 03:36 | 53.75682 | -46.78057 | 35533 ft | 504 kts | 248° |
| 2026-04-26 03:36 | 53.73272 | -46.89103 | 35475 ft | 505 kts | 248° |
| 2026-04-26 03:37 | 53.70834 | -47.00213 | 35516 ft | 504 kts | 248° |
| 2026-04-26 03:37 | 53.68384 | -47.11317 | 35519 ft | 509 kts | 248° |
| 2026-04-26 03:38 | 53.65917 | -47.22443 | 35531 ft | 508 kts | 248° |
| 2026-04-26 03:38 | 53.63443 | -47.33540 | 35502 ft | 507 kts | 248° |
| 2026-04-26 03:39 | 53.60979 | -47.44532 | 35555 ft | 507 kts | 249° |
| 2026-04-26 03:39 | 53.58470 | -47.55665 | 35530 ft | 507 kts | 249° |
| 2026-04-26 03:40 | 53.55979 | -47.66661 | 35524 ft | 508 kts | 248° |
| 2026-04-26 03:40 | 53.53449 | -47.77773 | 35522 ft | 508 kts | 248° |
| 2026-04-26 03:41 | 53.50933 | -47.88766 | 35482 ft | 509 kts | 248° |
| 2026-04-26 03:41 | 53.48399 | -47.99777 | 35467 ft | 508 kts | 248° |
| 2026-04-26 03:42 | 53.45842 | -48.10834 | 35534 ft | 509 kts | 249° |
| 2026-04-26 03:42 | 53.43274 | -48.21878 | 35542 ft | 508 kts | 249° |
| 2026-04-26 03:43 | 53.40699 | -48.32894 | 35517 ft | 508 kts | 249° |
| 2026-04-26 03:43 | 53.38126 | -48.43850 | 35475 ft | 510 kts | 249° |
| 2026-04-26 03:44 | 53.35509 | -48.54932 | 35530 ft | 511 kts | 249° |
| 2026-04-26 03:44 | 53.32900 | -48.65924 | 35498 ft | 512 kts | 248° |
| 2026-04-26 03:45 | 53.30277 | -48.76923 | 35506 ft | 510 kts | 248° |
| 2026-04-26 03:45 | 53.27632 | -48.87952 | 35523 ft | 512 kts | 248° |
| 2026-04-26 03:46 | 53.24996 | -48.98894 | 35478 ft | 511 kts | 249° |
| 2026-04-26 03:47 | 53.20986 | -49.15432 | 35523 ft | 513 kts | 248° |
| 2026-04-26 03:47 | 53.18325 | -49.26336 | 35504 ft | 514 kts | 249° |
| 2026-04-26 03:48 | 53.15635 | -49.37303 | 35522 ft | 514 kts | 249° |
| 2026-04-26 03:48 | 53.12925 | -49.48298 | 35493 ft | 513 kts | 249° |
| 2026-04-26 03:49 | 53.10206 | -49.59274 | 35512 ft | 513 kts | 249° |
| 2026-04-26 03:49 | 53.07494 | -49.70171 | 35469 ft | 511 kts | 248° |
| 2026-04-26 03:50 | 53.04767 | -49.81072 | 35526 ft | 514 kts | 248° |
| 2026-04-26 03:50 | 53.02015 | -49.92017 | 35525 ft | 513 kts | 248° |
| 2026-04-26 03:51 | 52.99315 | -50.02905 | 35483 ft | 515 kts | 249° |
| 2026-04-26 03:51 | 52.96672 | -50.13905 | 35511 ft | 513 kts | 249° |
| 2026-04-26 03:52 | 52.94041 | -50.24816 | 35513 ft | 515 kts | 249° |
| 2026-04-26 03:52 | 52.91379 | -50.35804 | 35497 ft | 516 kts | 250° |
| 2026-04-26 03:53 | 52.88722 | -50.46716 | 35513 ft | 514 kts | 250° |
| 2026-04-26 03:53 | 52.86047 | -50.57652 | 35535 ft | 516 kts | 250° |
| 2026-04-26 03:54 | 52.83366 | -50.68556 | 35503 ft | 515 kts | 249° |
| 2026-04-26 03:54 | 52.80676 | -50.79445 | 35527 ft | 514 kts | 249° |
| 2026-04-26 03:55 | 52.77972 | -50.90337 | 35475 ft | 514 kts | 249° |
| 2026-04-26 03:55 | 52.76618 | -50.95768 | 35579 ft | 514 kts | 249° |
| 2026-04-26 03:55 | 52.75256 | -51.01219 | 35520 ft | 515 kts | 249° |
| 2026-04-26 03:56 | 52.72534 | -51.12075 | 35484 ft | 514 kts | 249° |
| 2026-04-26 03:56 | 52.69803 | -51.22917 | 35500 ft | 513 kts | 249° |
| 2026-04-26 03:57 | 52.67062 | -51.33743 | 35558 ft | 514 kts | 249° |
| 2026-04-26 03:57 | 52.64326 | -51.44494 | 35526 ft | 513 kts | 249° |
| 2026-04-26 03:58 | 52.61561 | -51.55311 | 35524 ft | 515 kts | 250° |
| 2026-04-26 03:58 | 52.58785 | -51.66118 | 35501 ft | 514 kts | 249° |
| 2026-04-26 03:59 | 52.56010 | -51.76870 | 35541 ft | 514 kts | 249° |
| 2026-04-26 03:59 | 52.53230 | -51.87589 | 35577 ft | 515 kts | 249° |
| 2026-04-26 04:00 | 52.50431 | -51.98328 | 35569 ft | 514 kts | 249° |
| 2026-04-26 04:00 | 52.47607 | -52.09117 | 35532 ft | 513 kts | 249° |
| 2026-04-26 04:01 | 52.44804 | -52.19770 | 35561 ft | 515 kts | 249° |
| 2026-04-26 04:01 | 52.41967 | -52.30508 | 35551 ft | 515 kts | 249° |
| 2026-04-26 04:02 | 52.39124 | -52.41212 | 35562 ft | 515 kts | 249° |
| 2026-04-26 04:02 | 52.36276 | -52.51887 | 35520 ft | 514 kts | 249° |
| 2026-04-26 04:03 | 52.33413 | -52.62568 | 35549 ft | 514 kts | 249° |
| 2026-04-26 04:03 | 52.30540 | -52.73238 | 35585 ft | 514 kts | 248° |
| 2026-04-26 04:04 | 52.27675 | -52.83826 | 35594 ft | 514 kts | 248° |
| 2026-04-26 04:04 | 52.24784 | -52.94464 | 35573 ft | 515 kts | 248° |
| 2026-04-26 04:05 | 52.21873 | -53.05125 | 35595 ft | 514 kts | 248° |
| 2026-04-26 04:05 | 52.18962 | -53.15739 | 35609 ft | 514 kts | 248° |
| 2026-04-26 04:06 | 52.16066 | -53.26251 | 35582 ft | 513 kts | 248° |
| 2026-04-26 04:06 | 52.13144 | -53.36803 | 35581 ft | 512 kts | 248° |
| 2026-04-26 04:07 | 52.10211 | -53.47353 | 35600 ft | 514 kts | 249° |
| 2026-04-26 04:07 | 52.07270 | -53.57881 | 35617 ft | 513 kts | 249° |
| 2026-04-26 04:08 | 52.04313 | -53.68424 | 35613 ft | 514 kts | 248° |
| 2026-04-26 04:08 | 52.01340 | -53.78973 | 35627 ft | 515 kts | 248° |
| 2026-04-26 04:09 | 51.98360 | -53.89496 | 35631 ft | 513 kts | 248° |
| 2026-04-26 04:09 | 51.95404 | -53.99894 | 35631 ft | 515 kts | 248° |
| 2026-04-26 04:10 | 51.92408 | -54.10380 | 35647 ft | 513 kts | 248° |
| 2026-04-26 04:10 | 51.89407 | -54.20843 | 35651 ft | 515 kts | 248° |
| 2026-04-26 04:11 | 51.86398 | -54.31280 | 35644 ft | 512 kts | 248° |
| 2026-04-26 04:11 | 51.83387 | -54.41685 | 35633 ft | 512 kts | 248° |
| 2026-04-26 04:12 | 51.80378 | -54.52035 | 35659 ft | 512 kts | 248° |
| 2026-04-26 04:12 | 51.77895 | -54.62641 | 35684 ft | 506 kts | 258° |
| 2026-04-26 04:13 | 51.76006 | -54.73593 | 35668 ft | 507 kts | 257° |
| 2026-04-26 04:13 | 51.74046 | -54.84529 | 35643 ft | 509 kts | 257° |
| 2026-04-26 04:14 | 51.72044 | -54.95394 | 35681 ft | 509 kts | 257° |
| 2026-04-26 04:14 | 51.70006 | -55.06255 | 35671 ft | 507 kts | 256° |
| 2026-04-26 04:15 | 51.67956 | -55.17057 | 35702 ft | 509 kts | 256° |
| 2026-04-26 04:15 | 51.65876 | -55.27908 | 35661 ft | 507 kts | 256° |
| 2026-04-26 04:16 | 51.63790 | -55.38712 | 35701 ft | 507 kts | 256° |
| 2026-04-26 04:16 | 51.61678 | -55.49579 | 35708 ft | 510 kts | 256° |
| 2026-04-26 04:17 | 51.59560 | -55.60406 | 35736 ft | 510 kts | 257° |
| 2026-04-26 04:17 | 51.57438 | -55.71188 | 35721 ft | 508 kts | 256° |
| 2026-04-26 04:18 | 51.55302 | -55.81981 | 35737 ft | 510 kts | 256° |
| 2026-04-26 04:18 | 51.53148 | -55.92800 | 35737 ft | 506 kts | 256° |
| 2026-04-26 04:19 | 51.51005 | -56.03509 | 35757 ft | 509 kts | 256° |
| 2026-04-26 04:19 | 51.48822 | -56.14352 | 35784 ft | 508 kts | 256° |
| 2026-04-26 04:20 | 51.46635 | -56.25164 | 35780 ft | 513 kts | 256° |
| 2026-04-26 04:20 | 51.44436 | -56.35970 | 35768 ft | 512 kts | 256° |
| 2026-04-26 04:21 | 51.42235 | -56.46722 | 35788 ft | 511 kts | 256° |
| 2026-04-26 04:21 | 51.40006 | -56.57561 | 35762 ft | 512 kts | 256° |
| 2026-04-26 04:22 | 51.37771 | -56.68361 | 35746 ft | 511 kts | 255° |
| 2026-04-26 04:22 | 51.35524 | -56.79171 | 35781 ft | 515 kts | 255° |
| 2026-04-26 04:23 | 51.33257 | -56.90008 | 35748 ft | 513 kts | 255° |
| 2026-04-26 04:23 | 51.30976 | -57.00862 | 35796 ft | 518 kts | 255° |
| 2026-04-26 04:24 | 51.28693 | -57.11658 | 35759 ft | 515 kts | 255° |
| 2026-04-26 04:24 | 51.26399 | -57.22454 | 35824 ft | 519 kts | 255° |
| 2026-04-26 04:25 | 51.24043 | -57.33496 | 35792 ft | 531 kts | 255° |
| 2026-04-26 04:25 | 51.21629 | -57.44740 | 35792 ft | 541 kts | 255° |
| 2026-04-26 04:26 | 51.19180 | -57.56086 | 35881 ft | 549 kts | 255° |
| 2026-04-26 04:26 | 51.16676 | -57.67617 | 35826 ft | 552 kts | 254° |
| 2026-04-26 04:27 | 51.14163 | -57.79124 | 35829 ft | 554 kts | 254° |
| 2026-04-26 04:27 | 51.11636 | -57.90629 | 35790 ft | 553 kts | 254° |
| 2026-04-26 04:28 | 51.09099 | -58.02110 | 35845 ft | 555 kts | 254° |
| 2026-04-26 04:28 | 51.06550 | -58.13588 | 35855 ft | 556 kts | 254° |
| 2026-04-26 04:29 | 51.03983 | -58.25083 | 35886 ft | 555 kts | 254° |
| 2026-04-26 04:29 | 51.01389 | -58.36634 | 35903 ft | 556 kts | 255° |
| 2026-04-26 04:30 | 50.98788 | -58.48150 | 35877 ft | 557 kts | 254° |
| 2026-04-26 04:30 | 50.96184 | -58.59619 | 35853 ft | 556 kts | 254° |
| 2026-04-26 04:31 | 50.93576 | -58.71045 | 35875 ft | 554 kts | 253° |
| 2026-04-26 04:31 | 50.90938 | -58.82538 | 35915 ft | 557 kts | 253° |
| 2026-04-26 04:32 | 50.88282 | -58.94050 | 36209 ft | 554 kts | 253° |
| 2026-04-26 04:32 | 50.86978 | -58.99671 | 36841 ft | 542 kts | 253° |
| 2026-04-26 04:32 | 50.85695 | -59.05185 | 37328 ft | 532 kts | 252° |
| 2026-04-26 04:32 | 50.84431 | -59.10607 | 37757 ft | 526 kts | 252° |
| 2026-04-26 04:33 | 50.83178 | -59.15973 | 37887 ft | 527 kts | 252° |
| 2026-04-26 04:33 | 50.80618 | -59.26896 | 37909 ft | 526 kts | 252° |
| 2026-04-26 04:34 | 50.78088 | -59.37638 | 37903 ft | 528 kts | 252° |
| 2026-04-26 04:34 | 50.75520 | -59.48488 | 37914 ft | 529 kts | 252° |
| 2026-04-26 04:35 | 50.72954 | -59.59271 | 37932 ft | 528 kts | 252° |
| 2026-04-26 04:35 | 50.70359 | -59.70128 | 37921 ft | 528 kts | 251° |
| 2026-04-26 04:36 | 50.67768 | -59.80907 | 37917 ft | 528 kts | 251° |
| 2026-04-26 04:36 | 50.65172 | -59.91658 | 37920 ft | 525 kts | 252° |
| 2026-04-26 04:37 | 50.62587 | -60.02312 | 37946 ft | 528 kts | 252° |
| 2026-04-26 04:37 | 50.59954 | -60.13110 | 37937 ft | 532 kts | 251° |
| 2026-04-26 04:38 | 50.57286 | -60.24004 | 37947 ft | 537 kts | 252° |
| 2026-04-26 04:38 | 50.54590 | -60.34954 | 37956 ft | 541 kts | 251° |
| 2026-04-26 04:39 | 50.51892 | -60.45854 | 37936 ft | 540 kts | 252° |
| 2026-04-26 04:39 | 50.49166 | -60.56815 | 37937 ft | 540 kts | 252° |
| 2026-04-26 04:40 | 50.46419 | -60.67806 | 37960 ft | 542 kts | 251° |
| 2026-04-26 04:40 | 50.43670 | -60.78751 | 37965 ft | 540 kts | 251° |
| 2026-04-26 04:41 | 50.40924 | -60.89631 | 37967 ft | 539 kts | 251° |
| 2026-04-26 04:41 | 50.38163 | -61.00520 | 37956 ft | 539 kts | 251° |
| 2026-04-26 04:42 | 50.35398 | -61.11368 | 37975 ft | 540 kts | 251° |
| 2026-04-26 04:42 | 50.32618 | -61.22224 | 37965 ft | 538 kts | 251° |
| 2026-04-26 04:43 | 50.29829 | -61.33063 | 37973 ft | 537 kts | 251° |
| 2026-04-26 04:43 | 50.27039 | -61.43853 | 37993 ft | 537 kts | 251° |
| 2026-04-26 04:44 | 50.24244 | -61.54615 | 38020 ft | 539 kts | 251° |
| 2026-04-26 04:44 | 50.21427 | -61.65408 | 38014 ft | 538 kts | 250° |
| 2026-04-26 04:45 | 50.18615 | -61.76133 | 37998 ft | 537 kts | 250° |
| 2026-04-26 04:45 | 50.15772 | -61.86922 | 38033 ft | 538 kts | 250° |
| 2026-04-26 04:46 | 50.12933 | -61.97650 | 38017 ft | 537 kts | 250° |
| 2026-04-26 04:46 | 50.10094 | -62.08325 | 38032 ft | 536 kts | 250° |
| 2026-04-26 04:47 | 50.07252 | -62.18961 | 38050 ft | 537 kts | 250° |
| 2026-04-26 04:47 | 50.04372 | -62.29693 | 38048 ft | 535 kts | 250° |
| 2026-04-26 04:48 | 50.00071 | -62.45625 | 38054 ft | 534 kts | 250° |
| 2026-04-26 04:48 | 49.97194 | -62.56221 | 38064 ft | 534 kts | 250° |
| 2026-04-26 04:49 | 49.94304 | -62.66816 | 38065 ft | 534 kts | 249° |
| 2026-04-26 04:49 | 49.91414 | -62.77367 | 38074 ft | 535 kts | 249° |
| 2026-04-26 04:50 | 49.88507 | -62.87929 | 38042 ft | 535 kts | 249° |
| 2026-04-26 04:50 | 49.85588 | -62.98489 | 38053 ft | 534 kts | 249° |
| 2026-04-26 04:51 | 49.82671 | -63.08994 | 38066 ft | 533 kts | 249° |
| 2026-04-26 04:51 | 49.79744 | -63.19488 | 38054 ft | 532 kts | 249° |
| 2026-04-26 04:52 | 49.76810 | -63.29961 | 38057 ft | 535 kts | 249° |
| 2026-04-26 04:52 | 49.73842 | -63.40509 | 37992 ft | 533 kts | 249° |
| 2026-04-26 04:53 | 49.70900 | -63.50913 | 38046 ft | 532 kts | 249° |
| 2026-04-26 04:53 | 49.67939 | -63.61346 | 38167 ft | 533 kts | 249° |
| 2026-04-26 04:54 | 49.64958 | -63.71801 | 38079 ft | 533 kts | 248° |
| 2026-04-26 04:54 | 49.61985 | -63.82183 | 38083 ft | 532 kts | 248° |
| 2026-04-26 04:55 | 49.58998 | -63.92566 | 38074 ft | 533 kts | 248° |
| 2026-04-26 04:55 | 49.56005 | -64.02925 | 38158 ft | 530 kts | 248° |
| 2026-04-26 04:56 | 49.52988 | -64.13326 | 38070 ft | 531 kts | 248° |
| 2026-04-26 04:56 | 49.49977 | -64.23659 | 38036 ft | 531 kts | 248° |
| 2026-04-26 04:57 | 49.48473 | -64.28803 | 38158 ft | 530 kts | 248° |
| 2026-04-26 04:57 | 49.46956 | -64.33981 | 38115 ft | 531 kts | 248° |
| 2026-04-26 04:57 | 49.43943 | -64.44235 | 38100 ft | 530 kts | 248° |
| 2026-04-26 04:58 | 49.40914 | -64.54499 | 38132 ft | 530 kts | 248° |
| 2026-04-26 04:58 | 49.37858 | -64.64809 | 38102 ft | 529 kts | 248° |
| 2026-04-26 04:59 | 49.34823 | -64.75006 | 38127 ft | 528 kts | 248° |
| 2026-04-26 04:59 | 49.31787 | -64.85163 | 38103 ft | 526 kts | 247° |
| 2026-04-26 05:00 | 49.28735 | -64.95333 | 38154 ft | 527 kts | 248° |
| 2026-04-26 05:00 | 49.25687 | -65.05446 | 38120 ft | 524 kts | 248° |
| 2026-04-26 05:01 | 49.22630 | -65.15546 | 38146 ft | 526 kts | 247° |
| 2026-04-26 05:01 | 49.19569 | -65.25620 | 38125 ft | 524 kts | 248° |
| 2026-04-26 05:02 | 49.16494 | -65.35697 | 38137 ft | 523 kts | 248° |
| 2026-04-26 05:02 | 49.13427 | -65.45709 | 38100 ft | 523 kts | 248° |
| 2026-04-26 05:03 | 49.10339 | -65.55750 | 38123 ft | 522 kts | 248° |
| 2026-04-26 05:03 | 49.07254 | -65.65739 | 38116 ft | 524 kts | 246° |
| 2026-04-26 05:04 | 49.04142 | -65.75776 | 38094 ft | 525 kts | 247° |
| 2026-04-26 05:04 | 49.01043 | -65.85728 | 38108 ft | 523 kts | 247° |
| 2026-04-26 05:05 | 48.97917 | -65.95727 | 38058 ft | 523 kts | 246° |
| 2026-04-26 05:05 | 48.94451 | -66.05396 | 38065 ft | 524 kts | 236° |
| 2026-04-26 05:06 | 48.89580 | -66.13583 | 38039 ft | 528 kts | 226° |
| 2026-04-26 05:06 | 48.84416 | -66.21450 | 38086 ft | 526 kts | 227° |
| 2026-04-26 05:07 | 48.79274 | -66.29254 | 38065 ft | 526 kts | 227° |
| 2026-04-26 05:07 | 48.74117 | -66.37059 | 38097 ft | 526 kts | 227° |
| 2026-04-26 05:08 | 48.68952 | -66.44850 | 38052 ft | 524 kts | 227° |
| 2026-04-26 05:08 | 48.63797 | -66.52603 | 38082 ft | 525 kts | 227° |
| 2026-04-26 05:09 | 48.58625 | -66.60357 | 38072 ft | 522 kts | 227° |
| 2026-04-26 05:09 | 48.53506 | -66.68010 | 38090 ft | 523 kts | 226° |
| 2026-04-26 05:10 | 48.48340 | -66.75710 | 38062 ft | 523 kts | 227° |
| 2026-04-26 05:10 | 48.43173 | -66.83387 | 38086 ft | 523 kts | 227° |
| 2026-04-26 05:11 | 48.38019 | -66.91022 | 38091 ft | 522 kts | 226° |
| 2026-04-26 05:11 | 48.32854 | -66.98650 | 38079 ft | 521 kts | 227° |
| 2026-04-26 05:12 | 48.27701 | -67.06239 | 38086 ft | 520 kts | 227° |
| 2026-04-26 05:12 | 48.22579 | -67.13757 | 38099 ft | 519 kts | 227° |
| 2026-04-26 05:13 | 48.17409 | -67.21326 | 38112 ft | 519 kts | 227° |
| 2026-04-26 05:13 | 48.12274 | -67.28819 | 38104 ft | 518 kts | 227° |
| 2026-04-26 05:14 | 48.07133 | -67.36301 | 38109 ft | 519 kts | 227° |
| 2026-04-26 05:14 | 48.01967 | -67.43797 | 38100 ft | 517 kts | 227° |
| 2026-04-26 05:15 | 47.96812 | -67.51254 | 38101 ft | 517 kts | 227° |
| 2026-04-26 05:15 | 47.91676 | -67.58661 | 38113 ft | 516 kts | 227° |
| 2026-04-26 05:16 | 47.86523 | -67.66072 | 38115 ft | 516 kts | 226° |
| 2026-04-26 05:16 | 47.81367 | -67.73467 | 38110 ft | 515 kts | 226° |
| 2026-04-26 05:17 | 47.76221 | -67.80823 | 38117 ft | 515 kts | 227° |
| 2026-04-26 05:17 | 47.71053 | -67.88193 | 38108 ft | 516 kts | 227° |
| 2026-04-26 05:18 | 47.65889 | -67.95534 | 38095 ft | 516 kts | 227° |
| 2026-04-26 05:18 | 47.60733 | -68.02844 | 38123 ft | 515 kts | 227° |
| 2026-04-26 05:19 | 47.55556 | -68.10162 | 38116 ft | 515 kts | 227° |
| 2026-04-26 05:19 | 47.50376 | -68.17461 | 38126 ft | 513 kts | 227° |
| 2026-04-26 05:20 | 47.45238 | -68.24682 | 38136 ft | 512 kts | 227° |
| 2026-04-26 05:20 | 47.40094 | -68.31890 | 38115 ft | 512 kts | 227° |
| 2026-04-26 05:21 | 47.34915 | -68.39128 | 38137 ft | 512 kts | 227° |
| 2026-04-26 05:21 | 47.29782 | -68.46280 | 38108 ft | 509 kts | 227° |
| 2026-04-26 05:22 | 47.24640 | -68.53424 | 38119 ft | 508 kts | 227° |
| 2026-04-26 05:22 | 47.19484 | -68.60570 | 38144 ft | 508 kts | 227° |
| 2026-04-26 05:23 | 47.14340 | -68.67677 | 38126 ft | 507 kts | 227° |
| 2026-04-26 05:23 | 47.09217 | -68.74737 | 38121 ft | 506 kts | 227° |
| 2026-04-26 05:24 | 47.04088 | -68.81785 | 38146 ft | 507 kts | 227° |
| 2026-04-26 05:24 | 46.98969 | -68.88799 | 38146 ft | 505 kts | 227° |
| 2026-04-26 05:25 | 46.93859 | -68.95781 | 38130 ft | 503 kts | 227° |
| 2026-04-26 05:25 | 46.88740 | -69.02758 | 38098 ft | 502 kts | 227° |
| 2026-04-26 05:26 | 46.83641 | -69.09689 | 38100 ft | 503 kts | 227° |
| 2026-04-26 05:26 | 46.78519 | -69.16632 | 38156 ft | 502 kts | 227° |
| 2026-04-26 05:27 | 46.73437 | -69.23501 | 38122 ft | 500 kts | 227° |
| 2026-04-26 05:27 | 46.68343 | -69.30370 | 38170 ft | 501 kts | 227° |
| 2026-04-26 05:28 | 46.63234 | -69.37240 | 38159 ft | 501 kts | 227° |
| 2026-04-26 05:28 | 46.58114 | -69.44104 | 38103 ft | 499 kts | 227° |
| 2026-04-26 05:29 | 46.53016 | -69.50922 | 38138 ft | 498 kts | 227° |
| 2026-04-26 05:29 | 46.47948 | -69.57682 | 38115 ft | 498 kts | 227° |
| 2026-04-26 05:30 | 46.42847 | -69.64468 | 38137 ft | 499 kts | 227° |
| 2026-04-26 05:30 | 46.37740 | -69.71243 | 38126 ft | 499 kts | 226° |
| 2026-04-26 05:31 | 46.32634 | -69.78000 | 38138 ft | 498 kts | 226° |
| 2026-04-26 05:31 | 46.27723 | -69.84481 | 38132 ft | 495 kts | 226° |
| 2026-04-26 05:32 | 46.22647 | -69.91163 | 38098 ft | 494 kts | 226° |
| 2026-04-26 05:32 | 46.17564 | -69.97837 | 38099 ft | 495 kts | 226° |
| 2026-04-26 05:33 | 46.12483 | -70.04490 | 38097 ft | 492 kts | 226° |
| 2026-04-26 05:33 | 46.07386 | -70.11148 | 38081 ft | 493 kts | 226° |
| 2026-04-26 05:34 | 46.02332 | -70.17732 | 38101 ft | 494 kts | 226° |
| 2026-04-26 05:34 | 45.97259 | -70.24323 | 38082 ft | 492 kts | 226° |
| 2026-04-26 05:35 | 45.92156 | -70.30938 | 38093 ft | 492 kts | 226° |
| 2026-04-26 05:35 | 45.87114 | -70.37456 | 38062 ft | 490 kts | 226° |
| 2026-04-26 05:36 | 45.82028 | -70.44013 | 38078 ft | 491 kts | 226° |
| 2026-04-26 05:36 | 45.76962 | -70.50530 | 38077 ft | 491 kts | 226° |
| 2026-04-26 05:37 | 45.71903 | -70.57019 | 38086 ft | 491 kts | 226° |
| 2026-04-26 05:37 | 45.66848 | -70.63487 | 38074 ft | 489 kts | 225° |
| 2026-04-26 05:38 | 45.61792 | -70.69942 | 38111 ft | 489 kts | 225° |
| 2026-04-26 05:38 | 45.56693 | -70.76433 | 38081 ft | 489 kts | 225° |
| 2026-04-26 05:39 | 45.51660 | -70.82823 | 38062 ft | 487 kts | 225° |
| 2026-04-26 05:39 | 45.46590 | -70.89247 | 38067 ft | 487 kts | 225° |
| 2026-04-26 05:40 | 45.41553 | -70.95612 | 38068 ft | 487 kts | 225° |
| 2026-04-26 05:40 | 45.36488 | -71.01997 | 38084 ft | 488 kts | 225° |
| 2026-04-26 05:41 | 45.31413 | -71.08379 | 38091 ft | 487 kts | 225° |
| 2026-04-26 05:41 | 45.26345 | -71.14735 | 38069 ft | 486 kts | 225° |
| 2026-04-26 05:42 | 45.21279 | -71.21074 | 38082 ft | 487 kts | 225° |
| 2026-04-26 05:42 | 45.16203 | -71.27408 | 38124 ft | 486 kts | 225° |
| 2026-04-26 05:43 | 45.11168 | -71.33675 | 38075 ft | 483 kts | 225° |
| 2026-04-26 05:43 | 45.06111 | -71.39957 | 38093 ft | 484 kts | 225° |
| 2026-04-26 05:44 | 45.01073 | -71.46198 | 38108 ft | 485 kts | 225° |
| 2026-04-26 05:44 | 44.96022 | -71.52441 | 38071 ft | 484 kts | 225° |
| 2026-04-26 05:45 | 44.90939 | -71.58709 | 38052 ft | 485 kts | 225° |
| 2026-04-26 05:45 | 44.85859 | -71.64954 | 38090 ft | 484 kts | 225° |
| 2026-04-26 05:46 | 44.80772 | -71.71196 | 38046 ft | 483 kts | 224° |
| 2026-04-26 05:46 | 44.75705 | -71.77399 | 38075 ft | 485 kts | 224° |
| 2026-04-26 05:47 | 44.70627 | -71.83598 | 38067 ft | 483 kts | 224° |
| 2026-04-26 05:47 | 44.65561 | -71.89769 | 38131 ft | 483 kts | 224° |
| 2026-04-26 05:48 | 44.60466 | -71.95959 | 38120 ft | 482 kts | 224° |
| 2026-04-26 05:48 | 44.55420 | -72.02076 | 38126 ft | 480 kts | 224° |
| 2026-04-26 05:49 | 44.47855 | -72.11219 | 38156 ft | 480 kts | 225° |
| 2026-04-26 05:50 | 44.42809 | -72.17300 | 38116 ft | 480 kts | 224° |
| 2026-04-26 05:50 | 44.37728 | -72.23408 | 38095 ft | 482 kts | 224° |
| 2026-04-26 05:51 | 44.32677 | -72.29466 | 38078 ft | 479 kts | 224° |
| 2026-04-26 05:51 | 44.27605 | -72.35535 | 38074 ft | 481 kts | 224° |
| 2026-04-26 05:52 | 44.22535 | -72.41586 | 38176 ft | 479 kts | 225° |
| 2026-04-26 05:52 | 44.17518 | -72.47561 | 38151 ft | 478 kts | 225° |
| 2026-04-26 05:53 | 44.12452 | -72.53580 | 38125 ft | 479 kts | 224° |
| 2026-04-26 05:53 | 44.07375 | -72.59599 | 38153 ft | 480 kts | 224° |
| 2026-04-26 05:54 | 44.02303 | -72.65596 | 38123 ft | 478 kts | 224° |
| 2026-04-26 05:54 | 43.97251 | -72.71557 | 38110 ft | 478 kts | 224° |
| 2026-04-26 05:55 | 43.92186 | -72.77519 | 38103 ft | 478 kts | 224° |
| 2026-04-26 05:55 | 43.87113 | -72.83478 | 38108 ft | 480 kts | 224° |
| 2026-04-26 05:56 | 43.82026 | -72.89439 | 38096 ft | 479 kts | 224° |
| 2026-04-26 05:56 | 43.76950 | -72.95372 | 38120 ft | 478 kts | 224° |
| 2026-04-26 05:57 | 43.71875 | -73.01291 | 38133 ft | 476 kts | 224° |
| 2026-04-26 05:57 | 43.66814 | -73.07180 | 38102 ft | 477 kts | 224° |
| 2026-04-26 05:58 | 43.61779 | -73.13026 | 38122 ft | 476 kts | 224° |
| 2026-04-26 05:58 | 43.56720 | -73.18887 | 38114 ft | 476 kts | 224° |
| 2026-04-26 05:59 | 43.51663 | -73.24730 | 38125 ft | 473 kts | 224° |
| 2026-04-26 05:59 | 43.46605 | -73.30565 | 38088 ft | 475 kts | 224° |
| 2026-04-26 06:00 | 43.41524 | -73.36410 | 38102 ft | 473 kts | 224° |
| 2026-04-26 06:00 | 43.36493 | -73.42186 | 38119 ft | 474 kts | 224° |
| 2026-04-26 06:01 | 43.31437 | -73.47977 | 38133 ft | 472 kts | 224° |
| 2026-04-26 06:01 | 43.26406 | -73.53728 | 38153 ft | 472 kts | 224° |
| 2026-04-26 06:02 | 43.21183 | -73.59223 | 38136 ft | 478 kts | 216° |
| 2026-04-26 06:02 | 43.15057 | -73.62884 | 38103 ft | 486 kts | 204° |
| 2026-04-26 06:03 | 43.08628 | -73.65805 | 38133 ft | 488 kts | 202° |
| 2026-04-26 06:03 | 43.02141 | -73.68653 | 38129 ft | 487 kts | 202° |
| 2026-04-26 06:04 | 42.95717 | -73.71423 | 38146 ft | 486 kts | 202° |
| 2026-04-26 06:04 | 42.89242 | -73.74183 | 38156 ft | 486 kts | 202° |
| 2026-04-26 06:05 | 42.82813 | -73.76904 | 38159 ft | 482 kts | 202° |
| 2026-04-26 06:05 | 42.76413 | -73.79601 | 38177 ft | 484 kts | 202° |
| 2026-04-26 06:06 | 42.70007 | -73.82398 | 38153 ft | 480 kts | 203° |
| 2026-04-26 06:06 | 42.63688 | -73.85254 | 38164 ft | 482 kts | 204° |
| 2026-04-26 06:07 | 42.58245 | -73.87701 | 38176 ft | 481 kts | 203° |
| 2026-04-26 06:11 | 42.56527 | -73.88472 | 38147 ft | 481 kts | 203° |
| 2026-04-26 06:11 | 42.50149 | -73.91327 | 38158 ft | 481 kts | 204° |
| 2026-04-26 06:12 | 42.43827 | -73.94148 | 38139 ft | 480 kts | 204° |
| 2026-04-26 06:12 | 42.37461 | -73.96982 | 38101 ft | 480 kts | 204° |
| 2026-04-26 06:13 | 42.31110 | -73.99802 | 38109 ft | 480 kts | 203° |
| 2026-04-26 06:13 | 42.24852 | -74.02570 | 37785 ft | 466 kts | 204° |
| 2026-04-26 06:13 | 42.21817 | -74.03911 | 36921 ft | 465 kts | 204° |
| 2026-04-26 06:14 | 42.18722 | -74.05281 | 35806 ft | 466 kts | 204° |
| 2026-04-26 06:14 | 42.15661 | -74.06634 | 34901 ft | 464 kts | 204° |
| 2026-04-26 06:14 | 42.12604 | -74.07982 | 33991 ft | 461 kts | 205° |
| 2026-04-26 06:14 | 42.09595 | -74.09309 | 32963 ft | 460 kts | 204° |
| 2026-04-26 06:15 | 42.06581 | -74.10637 | 32063 ft | 458 kts | 203° |
| 2026-04-26 06:15 | 42.03576 | -74.11956 | 31470 ft | 451 kts | 204° |
| 2026-04-26 06:15 | 42.00580 | -74.13270 | 30886 ft | 444 kts | 203° |
| 2026-04-26 06:15 | 41.97671 | -74.14545 | 30186 ft | 441 kts | 203° |
| 2026-04-26 06:16 | 41.94772 | -74.15816 | 29460 ft | 440 kts | 202° |
| 2026-04-26 06:16 | 41.91856 | -74.17093 | 28708 ft | 439 kts | 202° |
| 2026-04-26 06:16 | 41.88950 | -74.18363 | 28069 ft | 436 kts | 202° |
| 2026-04-26 06:16 | 41.86072 | -74.19621 | 27482 ft | 432 kts | 202° |
| 2026-04-26 06:17 | 41.83231 | -74.20860 | 26858 ft | 430 kts | 202° |
| 2026-04-26 06:17 | 41.80336 | -74.22124 | 26210 ft | 427 kts | 202° |
| 2026-04-26 06:17 | 41.77522 | -74.23351 | 25550 ft | 426 kts | 202° |
| 2026-04-26 06:17 | 41.74690 | -74.24585 | 24854 ft | 425 kts | 201° |
| 2026-04-26 06:18 | 41.71878 | -74.25809 | 24285 ft | 422 kts | 201° |
| 2026-04-26 06:18 | 41.69091 | -74.27020 | 23635 ft | 421 kts | 201° |
| 2026-04-26 06:18 | 41.66315 | -74.28226 | 23053 ft | 418 kts | 201° |
| 2026-04-26 06:18 | 41.63571 | -74.29416 | 22502 ft | 415 kts | 201° |
| 2026-04-26 06:19 | 41.60834 | -74.30602 | 21914 ft | 413 kts | 201° |
| 2026-04-26 06:19 | 41.58118 | -74.31780 | 21270 ft | 412 kts | 201° |
| 2026-04-26 06:19 | 41.55422 | -74.32946 | 20711 ft | 409 kts | 201° |
| 2026-04-26 06:19 | 41.52692 | -74.34126 | 20150 ft | 406 kts | 201° |
| 2026-04-26 06:20 | 41.50026 | -74.35278 | 19572 ft | 404 kts | 201° |
| 2026-04-26 06:20 | 41.47389 | -74.36416 | 19052 ft | 400 kts | 201° |
| 2026-04-26 06:20 | 41.44751 | -74.37553 | 18522 ft | 397 kts | 201° |
| 2026-04-26 06:20 | 41.42117 | -74.38689 | 17923 ft | 396 kts | 201° |
| 2026-04-26 06:21 | 41.39513 | -74.39810 | 17409 ft | 392 kts | 201° |
| 2026-04-26 06:21 | 41.36931 | -74.40920 | 16887 ft | 389 kts | 201° |
| 2026-04-26 06:21 | 41.34367 | -74.42023 | 16218 ft | 390 kts | 201° |
| 2026-04-26 06:21 | 41.31797 | -74.43127 | 15642 ft | 388 kts | 201° |
| 2026-04-26 06:22 | 41.29252 | -74.44218 | 15204 ft | 381 kts | 201° |
| 2026-04-26 06:22 | 41.26725 | -74.45302 | 14654 ft | 379 kts | 200° |
| 2026-04-26 06:22 | 41.24220 | -74.46374 | 14069 ft | 378 kts | 200° |
| 2026-04-26 06:22 | 41.21749 | -74.47432 | 13497 ft | 377 kts | 200° |
| 2026-04-26 06:23 | 41.19238 | -74.48505 | 13104 ft | 370 kts | 201° |
| 2026-04-26 06:23 | 41.16805 | -74.49545 | 12720 ft | 363 kts | 200° |
| 2026-04-26 06:23 | 41.14408 | -74.50568 | 12114 ft | 363 kts | 200° |
| 2026-04-26 06:23 | 41.12008 | -74.51592 | 11481 ft | 364 kts | 200° |
| 2026-04-26 06:24 | 41.09634 | -74.52604 | 11084 ft | 357 kts | 200° |
| 2026-04-26 06:24 | 41.07246 | -74.53570 | 10573 ft | 355 kts | 195° |
| 2026-04-26 06:24 | 41.04827 | -74.54002 | 10137 ft | 352 kts | 187° |
| 2026-04-26 06:24 | 41.02396 | -74.54237 | 9867 ft | 342 kts | 187° |
| 2026-04-26 06:25 | 41.00054 | -74.54449 | 9776 ft | 328 kts | 187° |
| 2026-04-26 06:25 | 40.97846 | -74.54651 | 9739 ft | 312 kts | 187° |
| 2026-04-26 06:25 | 40.95700 | -74.54848 | 9707 ft | 297 kts | 187° |
| 2026-04-26 06:25 | 40.93702 | -74.55033 | 9694 ft | 283 kts | 187° |
| 2026-04-26 06:26 | 40.91756 | -74.55212 | 9554 ft | 274 kts | 187° |
| 2026-04-26 06:26 | 40.89863 | -74.55389 | 9247 ft | 273 kts | 187° |
| 2026-04-26 06:26 | 40.87966 | -74.55566 | 8966 ft | 271 kts | 186° |
| 2026-04-26 06:26 | 40.86095 | -74.55737 | 8680 ft | 270 kts | 187° |
| 2026-04-26 06:27 | 40.84229 | -74.55909 | 8436 ft | 266 kts | 187° |
| 2026-04-26 06:27 | 40.82370 | -74.55987 | 8131 ft | 267 kts | 181° |
| 2026-04-26 06:27 | 40.80510 | -74.55897 | 7836 ft | 266 kts | 180° |
| 2026-04-26 06:27 | 40.78674 | -74.55791 | 7505 ft | 266 kts | 180° |
| 2026-04-26 06:28 | 40.76816 | -74.55688 | 7126 ft | 266 kts | 179° |
| 2026-04-26 06:28 | 40.74982 | -74.55589 | 6888 ft | 262 kts | 179° |
| 2026-04-26 06:28 | 40.73171 | -74.55493 | 6661 ft | 258 kts | 179° |
| 2026-04-26 06:28 | 40.71373 | -74.55396 | 6339 ft | 258 kts | 180° |
| 2026-04-26 06:29 | 40.69585 | -74.55302 | 5989 ft | 257 kts | 179° |
| 2026-04-26 06:29 | 40.67806 | -74.55208 | 5707 ft | 254 kts | 179° |
| 2026-04-26 06:29 | 40.66033 | -74.55114 | 5413 ft | 253 kts | 177° |
| 2026-04-26 06:29 | 40.64293 | -74.54919 | 5060 ft | 252 kts | 163° |
| 2026-04-26 06:30 | 40.62724 | -74.53879 | 4632 ft | 251 kts | 136° |
| 2026-04-26 06:30 | 40.61573 | -74.52212 | 4355 ft | 247 kts | 130° |
| 2026-04-26 06:30 | 40.60329 | -74.50668 | 4138 ft | 242 kts | 139° |
| 2026-04-26 06:30 | 40.58991 | -74.49368 | 3906 ft | 241 kts | 142° |
| 2026-04-26 06:31 | 40.57603 | -74.48118 | 3618 ft | 241 kts | 142° |
| 2026-04-26 06:31 | 40.56211 | -74.46894 | 3378 ft | 239 kts | 142° |
| 2026-04-26 06:31 | 40.54834 | -74.45689 | 3109 ft | 238 kts | 142° |
| 2026-04-26 06:31 | 40.53459 | -74.44486 | 2821 ft | 237 kts | 142° |
| 2026-04-26 06:32 | 40.52132 | -74.43330 | 2848 ft | 221 kts | 142° |
| 2026-04-26 06:32 | 40.50879 | -74.42237 | 2792 ft | 207 kts | 141° |
| 2026-04-26 06:32 | 40.49892 | -74.41008 | 2762 ft | 189 kts | 120° |
| 2026-04-26 06:32 | 40.49393 | -74.39516 | 2785 ft | 168 kts | 99° |
| 2026-04-26 06:33 | 40.49330 | -74.38071 | 2773 ft | 151 kts | 82° |
| 2026-04-26 06:33 | 40.49342 | -74.36760 | 2772 ft | 146 kts | 107° |
| 2026-04-26 06:33 | 40.48639 | -74.35791 | 2794 ft | 154 kts | 143° |
| 2026-04-26 06:33 | 40.47821 | -74.34901 | 2798 ft | 152 kts | 111° |
| 2026-04-26 06:34 | 40.47738 | -74.33566 | 2784 ft | 148 kts | 71° |
| 2026-04-26 06:34 | 40.48085 | -74.32331 | 2800 ft | 143 kts | 72° |
| 2026-04-26 06:34 | 40.48386 | -74.31100 | 2793 ft | 141 kts | 72° |
| 2026-04-26 06:34 | 40.48846 | -74.29965 | 2805 ft | 142 kts | 60° |
| 2026-04-26 06:35 | 40.49508 | -74.28992 | 2798 ft | 145 kts | 41° |
| 2026-04-26 06:35 | 40.50402 | -74.28318 | 2805 ft | 149 kts | 32° |
| 2026-04-26 06:35 | 40.51346 | -74.27733 | 2796 ft | 149 kts | 30° |
| 2026-04-26 06:35 | 40.52287 | -74.27161 | 2753 ft | 146 kts | 31° |
| 2026-04-26 06:36 | 40.53225 | -74.26580 | 2478 ft | 149 kts | 31° |
| 2026-04-26 06:36 | 40.54153 | -74.26002 | 2287 ft | 148 kts | 31° |
| 2026-04-26 06:36 | 40.55080 | -74.25421 | 2068 ft | 147 kts | 31° |
| 2026-04-26 06:36 | 40.55992 | -74.24850 | 2005 ft | 144 kts | 31° |
| 2026-04-26 06:37 | 40.56902 | -74.24274 | 2003 ft | 146 kts | 31° |
| 2026-04-26 06:37 | 40.57804 | -74.23708 | 1987 ft | 136 kts | 31° |
| 2026-04-26 06:37 | 40.58624 | -74.23191 | 2000 ft | 131 kts | 31° |
| 2026-04-26 06:37 | 40.59449 | -74.22669 | 1911 ft | 132 kts | 31° |
| 2026-04-26 06:38 | 40.60265 | -74.22155 | 1751 ft | 128 kts | 31° |
| 2026-04-26 06:38 | 40.61070 | -74.21645 | 1576 ft | 128 kts | 31° |
| 2026-04-26 06:38 | 40.61876 | -74.21137 | 1403 ft | 129 kts | 31° |
| 2026-04-26 06:38 | 40.62684 | -74.20626 | 1234 ft | 130 kts | 30° |
| 2026-04-26 06:39 | 40.63503 | -74.20109 | 1061 ft | 131 kts | 30° |
| 2026-04-26 06:39 | 40.64327 | -74.19589 | 882 ft | 130 kts | 30° |
| 2026-04-26 06:39 | 40.65140 | -74.19074 | 706 ft | 131 kts | 29° |
| 2026-04-26 06:39 | 40.65964 | -74.18553 | 527 ft | 131 kts | 29° |
| 2026-04-26 06:40 | 40.66789 | -74.18028 | 348 ft | 131 kts | 28° |
| 2026-04-26 06:40 | 40.67616 | -74.17512 | 155 ft | 131 kts | 28° |
| 2026-04-26 06:40 | 40.68425 | -74.17002 | 33 ft | 121 kts | 27° |
| 2026-04-26 06:40 | 40.68964 | -74.16652 | 32 ft | 49 kts | 21° |
| 2026-04-26 06:41 | 40.69212 | -74.16584 | 32 ft | 19 kts | 358° |
| 2026-04-26 06:41 | 40.69302 | -74.16591 | 32 ft | 8 kts | 356° |